Have a Safe July 4th! 

Flight Track Log - Related Links

Times and Time Zones

All times are in EDT time to prevent confusion due to time zone crossing. See the DAL268 flight status page for this flight to view local times or setup timezone preferences in your user account.

Time Position Orientation Groundspeed Altitude Reporting Facility
EDT Latitude Longitude Course Direction KTS MPH feet Rate Location/Type
Wed 11:31:03 PM 40.6370 -73.7790 261° West 11 13  Level FlightAware ADS-B
Wed 11:31:14 PM 40.6380 -73.7790 360° North 12 14 Level FlightAware ADS-B
Wed 11:33:00 PM 40.5424 -73.4940 114° Southeast  Level FlightAware Approximate
Wed 11:34:00 PM 40.4883 -73.3316 114° Southeast  Level FlightAware Approximate
Wed 11:35:00 PM 40.4425 -73.1658 119° Southeast  Level FlightAware Approximate
Wed 11:36:00 PM 40.3833 -73.0061 90° East  Level FlightAware Approximate
Wed 11:36:30 PM 40.6370 -73.7790 90° East 19 22  Level FlightAware ADS-B
Wed 11:37:30 PM 40.6350 -73.7780 159° South 20 23 10 Level FlightAware ADS-B
Wed 11:38:01 PM 40.6350 -73.7770 90° East 17 20 11 Level FlightAware ADS-B
Wed 11:38:16 PM 40.6360 -73.7770 360° North 20 23 12 Level FlightAware ADS-B
Wed 11:38:42 PM 40.6370 -73.7760 37° Northeast 23 26 12 Level FlightAware ADS-B
Wed 11:39:13 PM 40.6380 -73.7750 37° Northeast 29 33 13 Level FlightAware ADS-B
Wed 11:39:25 PM 40.6390 -73.7740 37° Northeast 30 35 14 Level FlightAware ADS-B
Wed 11:39:53 PM 40.6400 -73.7730 37° Northeast 32 37 14 Level FlightAware ADS-B
Wed 11:40:08 PM 40.6410 -73.7730 360° North 15 17 15 Level FlightAware ADS-B
Wed 11:40:34 PM 40.6430 -73.7710 37° Northeast 34 39 16 Level FlightAware ADS-B
Wed 11:41:02 PM 40.6440 -73.7700 37° Northeast 26 30 17 Level FlightAware ADS-B
Wed 11:41:30 PM 40.6450 -73.7690 37° Northeast 25 29 19 Level FlightAware ADS-B
Wed 11:42:27 PM 40.6480 -73.7690 360° North 23 26 20 Level FlightAware ADS-B
Wed 11:43:08 PM 40.6490 -73.7670 57° Northeast 16 18 25 Level FlightAware ADS-B
Wed 11:44:46 PM 40.6490 -73.7660 90° East 22 25 30 Level FlightAware ADS-B
Wed 11:45:37 PM 40.6470 -73.7660 180° South 34 39 61 Level FlightAware ADS-B
Wed 11:46:25 PM 40.6230 -73.7850 211° Southwest 175 201 100 800 Climbing FlightAware ADS-B
Wed 11:46:52 PM 40.6050 -73.8000 212° Southwest 175 201 1,000 1,472 Climbing FlightAware ADS-B
Wed 11:47:18 PM 40.5850 -73.8170 213° Southwest 206 237 1,400 1,091 Climbing FlightAware ADS-B
Wed 11:47:36 PM 40.5700 -73.8300 213° Southwest 222 255 1,800 1,071 Climbing FlightAware ADS-B
Wed 11:47:46 PM 40.5600 -73.8370 208° Southwest 230 265 1,900 300 Climbing FlightAware ADS-B
Wed 11:47:56 PM 40.5500 -73.8380 184° South 238 274 1,900 1,105 Level FlightAware ADS-B
Wed 11:48:24 PM 40.5193 -73.8214 158° South 259 298 2,600 1,535 Climbing FlightAware ADS-B
Wed 11:48:39 PM 40.5061 -73.8035 134° Southeast 259 298 3,000 1,765 Climbing FlightAware ADS-B
Wed 11:48:58 PM 40.4928 -73.7764 123° Southeast 273 314 3,600 1,941 Climbing FlightAware ADS-B
Wed 11:49:13 PM 40.4899 -73.7514 99° East 283 326 4,100 1,895 Climbing FlightAware ADS-B
Wed 11:49:17 PM 40.4904 -73.7445 85° East 284 327 4,200 1,385 Climbing FlightAware ADS-B
Wed 11:49:26 PM 40.4930 -73.7292 77° East 286 329 4,400 1,256 Climbing FlightAware ADS-B
Wed 11:50:00 PM 40.5096 -73.6722 69° East 294 338 5,100 1,297 Climbing FlightAware ADS-B
Wed 11:50:03 PM 40.5112 -73.6671 68° East 300 345 5,200 2,483 Climbing FlightAware ADS-B
Wed 11:50:29 PM 40.5251 -73.6249 67° East 301 346 6,300 2,438 Climbing FlightAware ADS-B
Wed 11:50:35 PM 40.5286 -73.6148 65° Northeast 304 350 6,500 2,286 Climbing FlightAware ADS-B
Wed 11:50:50 PM 40.5374 -73.5894 65° Northeast 307 353 7,100 2,087 Climbing FlightAware ADS-B
Wed 11:50:58 PM 40.5420 -73.5738 69° East 311 358 7,300 2,000 Climbing FlightAware ADS-B
Wed 11:51:02 PM 40.5439 -73.5667 71° East 312 359 7,500 2,250 Climbing FlightAware ADS-B
Wed 11:51:06 PM 40.5454 -73.5593 75° East 312 359 7,600 1,714 Climbing FlightAware ADS-B
Wed 11:51:09 PM 40.5462 -73.5536 80° East 312 359 7,700 2,000 Climbing FlightAware ADS-B
Wed 11:51:12 PM 40.5467 -73.5481 83° East 312 359 7,800 2,000 Climbing FlightAware ADS-B
Wed 11:51:18 PM 40.5470 -73.5385 88° East 312 359 8,000 2,000 Climbing FlightAware ADS-B
Wed 11:51:24 PM 40.5466 -73.5253 92° East 312 359 8,200 2,182 Climbing FlightAware ADS-B
Wed 11:51:29 PM 40.5456 -73.5159 98° East 313 360 8,400 2,000 Climbing FlightAware ADS-B
Wed 11:51:36 PM 40.5431 -73.5029 104° East 313 360 8,600 2,000 Climbing FlightAware ADS-B
Wed 11:51:41 PM 40.5405 -73.4939 111° Southeast 313 360 8,800 2,100 Climbing FlightAware ADS-B
Wed 11:51:56 PM 40.5326 -73.4671 111° Southeast 317 365 9,300 2,000 Climbing FlightAware ADS-B
Wed 11:52:14 PM 40.5231 -73.4346 111° Southeast 320 368 9,900 1,412 Climbing FlightAware ADS-B
Wed 11:52:47 PM 40.5045 -73.3723 111° Southeast 345 397 10,500 1,031 Climbing FlightAware ADS-B
Wed 11:53:18 PM 40.4856 -73.3112 112° Southeast 372 428 11,000 900 Climbing FlightAware ADS-B
Wed 11:53:27 PM 40.4802 -73.2897 108° East 380 437 11,100 750 Climbing FlightAware ADS-B
Wed 11:53:34 PM 40.4775 -73.2737 103° East 388 447 11,200 923 Climbing FlightAware ADS-B
Wed 11:53:40 PM 40.4767 -73.2595 94° East 393 452 11,300 1,200 Climbing FlightAware ADS-B
Wed 11:53:49 PM 40.4780 -73.2402 85° East 400 460 11,500 1,059 Climbing FlightAware ADS-B
Wed 11:53:57 PM 40.4817 -73.2213 76° East 404 465 11,600 1,125 Climbing FlightAware ADS-B
Wed 11:54:05 PM 40.4883 -73.2010 67° East 408 470 11,800 1,742 Climbing FlightAware ADS-B
Wed 11:54:28 PM 40.5128 -73.1526 56° Northeast 417 480 12,500 2,111 Climbing FlightAware ADS-B
Wed 11:54:59 PM 40.5485 -73.0880 54° Northeast 424 488 13,700 2,226 Climbing FlightAware ADS-B
Wed 11:55:30 PM 40.5846 -73.0226 54° Northeast 433 498 14,800 2,032 Climbing FlightAware ADS-B
Wed 11:56:01 PM 40.6206 -72.9549 55° Northeast 442 509 15,800 2,095 Climbing FlightAware ADS-B
Wed 11:56:33 PM 40.6585 -72.8837 55° Northeast 448 516 17,000 2,063 Climbing FlightAware ADS-B
Wed 11:57:05 PM 40.6964 -72.8116 55° Northeast 455 524 18,000 1,810 Climbing FlightAware ADS-B
Wed 11:57:36 PM 40.7337 -72.7429 54° Northeast 462 532 18,900 1,810 Climbing FlightAware ADS-B
Wed 11:58:08 PM 40.7732 -72.6683 55° Northeast 469 540 19,900 1,810 Climbing FlightAware ADS-B
Wed 11:58:39 PM 40.8120 -72.5950 55° Northeast 474 545 20,800 1,742 Climbing FlightAware ADS-B
Wed 11:59:10 PM 40.8518 -72.5186 55° Northeast 479 551 21,700 1,742 Climbing FlightAware ADS-B
Wed 11:59:41 PM 40.8907 -72.4438 55° Northeast 483 556 22,600 1,548 Climbing FlightAware ADS-B
Thu 12:00:12 AM 40.9302 -72.3705 54° Northeast 490 564 23,300 1,377 Climbing FlightAware ADS-B
Thu 12:00:42 AM 40.9693 -72.2936 56° Northeast 497 572 24,000 1,180 Climbing FlightAware ADS-B
Thu 12:01:13 AM 41.0101 -72.2180 54° Northeast 507 583 24,500 1,082 Climbing FlightAware ADS-B
Thu 12:01:43 AM 41.0515 -72.1379 56° Northeast 514 592 25,100 1,254 Climbing FlightAware ADS-B
Thu 12:02:20 AM 41.1011 -72.0411 56° Northeast 521 600 25,900 837 Climbing FlightAware ADS-B
Thu 12:03:09 AM 41.1620 -71.9250 55° Northeast 524 603 26,300 1,079 Climbing FlightAware ADS-B
Thu 12:03:49 AM 41.2140 -71.8250 55° Northeast 535 616 27,500 1,412 Climbing FlightAware ADS-B
Thu 12:04:34 AM 41.2860 -71.6820 56° Northeast 543 625 28,300 1,067 Climbing FlightAware ADS-B
Thu 12:05:19 AM 41.3500 -71.5580 55° Northeast 548 631 29,100 1,200 Climbing FlightAware ADS-B
Thu 12:05:59 AM 41.4050 -71.4490 56° Northeast 547 629 30,000 1,200 Climbing FlightAware ADS-B
Thu 12:06:39 AM 41.4630 -71.3340 56° Northeast 550 633 30,700 1,129 Climbing FlightAware ADS-B
Thu 12:07:24 AM 41.5250 -71.2130 56° Northeast 549 632 31,600 1,271 Climbing FlightAware ADS-B
Thu 12:08:04 AM 41.5840 -71.0950 56° Northeast 547 629 32,500 988 Climbing FlightAware ADS-B
Thu 12:08:49 AM 41.6470 -70.9700 56° Northeast 542 624 33,000 353 Climbing FlightAware ADS-B
Thu 12:09:29 AM 41.7000 -70.8640 56° Northeast 539 620 33,000  Level FlightAware ADS-B
Thu 12:10:34 AM 41.7870 -70.6890 56° Northeast 537 618 33,000  Level FlightAware ADS-B
Thu 12:11:36 AM 41.8750 -70.5090 57° Northeast 536 617 33,000  Level FlightAware ADS-B
Thu 12:12:29 AM 41.9470 -70.3650 56° Northeast 536 617 33,000  Level FlightAware ADS-B
Thu 12:13:11 AM 42.0060 -70.2450 56° Northeast 535 616 33,000  Level FlightAware ADS-B
Thu 12:13:52 AM 42.0620 -70.1310 56° Northeast 535 616 33,000  Level FlightAware ADS-B
Thu 12:14:36 AM 42.1220 -70.0050 57° Northeast 538 619 33,000  Level FlightAware ADS-B
Thu 12:15:17 AM 42.1770 -69.8930 56° Northeast 539 620 33,000  Level FlightAware ADS-B
Thu 12:16:02 AM 42.2370 -69.7660 57° Northeast 540 621 33,000  Level FlightAware ADS-B
Thu 12:16:42 AM 42.2930 -69.6520 56° Northeast 542 624 33,000  Level FlightAware ADS-B
Thu 12:17:27 AM 42.3540 -69.5240 57° Northeast 543 625 33,000  Level FlightAware ADS-B
Thu 12:18:07 AM 42.4090 -69.4070 57° Northeast 545 627 33,000  Level FlightAware ADS-B
Thu 12:18:47 AM 42.4590 -69.3010 57° Northeast 545 627 33,000  Level FlightAware ADS-B
Thu 12:19:30 AM 42.5210 -69.1710 57° Northeast 546 628 33,000  Level FlightAware ADS-B
Thu 12:20:15 AM 42.5820 -69.0410 57° Northeast 547 629 33,000  Level FlightAware ADS-B
Thu 12:20:50 AM 42.6310 -68.9370 57° Northeast 546 628 33,000  Level FlightAware ADS-B
Thu 12:22:10 AM 42.7280 -68.7310 57° Northeast 546 628 33,000  Level FlightAware ADS-B
Thu 12:22:42 AM 42.7790 -68.6180 58° Northeast 33,000  Level FlightAware ADS-B
Thu 12:23:27 AM 42.8410 -68.4840 58° Northeast 544 626 33,000  Level FlightAware ADS-B
Thu 12:24:27 AM 42.9170 -68.3210 57° Northeast 543 625 33,000  Level FlightAware ADS-B
Thu 12:25:07 AM 42.9750 -68.1940 58° Northeast 538 619 33,000  Level FlightAware ADS-B
Thu 12:25:47 AM 43.0170 -68.1010 58° Northeast 539 620 33,000  Level FlightAware ADS-B
Thu 12:26:45 AM 43.0950 -67.9250 59° Northeast 539 620 33,000  Level FlightAware ADS-B
Thu 12:27:26 AM 43.1580 -67.7880 58° Northeast 539 620 33,000  Level FlightAware ADS-B
Thu 12:28:12 AM 43.2190 -67.6540 58° Northeast 539 620 33,000  Level FlightAware ADS-B
Thu 12:28:51 AM 43.2700 -67.5390 59° Northeast 538 619 33,000  Level FlightAware ADS-B
Thu 12:29:32 AM 43.3220 -67.4220 59° Northeast 538 619 33,000  Level FlightAware ADS-B
Thu 12:30:32 AM 43.4010 -67.2420 59° Northeast 537 618 33,000  Level FlightAware ADS-B
Thu 12:31:11 AM 43.4530 -67.1250 58° Northeast 537 618 33,000  Level FlightAware ADS-B
Thu 12:31:57 AM 43.5110 -66.9950 58° Northeast 538 619 33,000  Level FlightAware ADS-B
Thu 12:32:36 AM 43.5610 -66.8790 59° Northeast 539 620 33,000  Level FlightAware ADS-B
Thu 12:33:17 AM 43.6150 -66.7540 59° Northeast 541 623 33,000  Level FlightAware ADS-B
Thu 12:33:56 AM 43.6660 -66.6350 59° Northeast 543 625 33,000  Level FlightAware ADS-B
Thu 12:34:41 AM 43.7250 -66.4990 59° Northeast 544 626 33,000  Level FlightAware ADS-B
Thu 12:35:22 AM 43.7770 -66.3790 59° Northeast 545 627 33,000  Level FlightAware ADS-B
Thu 12:36:06 AM 43.8340 -66.2460 59° Northeast 546 628 33,000  Level FlightAware ADS-B
Thu 12:36:47 AM 43.8870 -66.1220 59° Northeast 546 628 33,000  Level FlightAware ADS-B
Thu 12:37:31 AM 43.9440 -65.9850 60° Northeast 551 634 33,000  Level FlightAware ADS-B
Thu 12:38:12 AM 43.9960 -65.8630 59° Northeast 552 635 33,000  Level FlightAware ADS-B
Thu 12:38:52 AM 44.0470 -65.7400 60° Northeast 553 636 33,000  Level FlightAware ADS-B
Thu 12:39:36 AM 44.1050 -65.6050 59° Northeast 554 638 33,000  Level FlightAware ADS-B
Thu 12:40:17 AM 44.1570 -65.4780 60° Northeast 555 639 33,000  Level FlightAware ADS-B
Thu 12:40:56 AM 44.2070 -65.3580 60° Northeast 555 639 33,000  Level FlightAware ADS-B
Thu 12:41:42 AM 44.2660 -65.2150 60° Northeast 556 640 33,000  Level FlightAware ADS-B
Thu 12:42:25 AM 44.3160 -65.0910 61° Northeast 553 636 33,000  Level FlightAware ADS-B
Thu 12:43:07 AM 44.3740 -64.9510 60° Northeast 552 635 33,000  Level FlightAware ADS-B
Thu 12:43:43 AM 44.4190 -64.8400 60° Northeast 550 633 33,000  Level FlightAware ADS-B
Thu 12:44:32 AM 44.4820 -64.6850 60° Northeast 553 636 33,000  Level FlightAware ADS-B
Thu 12:45:13 AM 44.5280 -64.5720 60° Northeast 555 639 33,000  Level FlightAware ADS-B
Thu 12:45:55 AM 44.5860 -64.4250 61° Northeast 554 638 33,000  Level FlightAware ADS-B
Thu 12:46:36 AM 44.6380 -64.2930 61° Northeast 552 635 33,000  Level FlightAware ADS-B
Thu 12:47:20 AM 44.6930 -64.1560 61° Northeast 549 632 33,000  Level FlightAware ADS-B
Thu 12:48:01 AM 44.7430 -64.0320 60° Northeast 545 627 33,000  Level FlightAware ADS-B
Thu 12:48:44 AM 44.7950 -63.8990 61° Northeast 544 626 33,000  Level FlightAware ADS-B
Thu 12:49:24 AM 44.8430 -63.7750 61° Northeast 542 624 33,000  Level FlightAware ADS-B
Thu 12:50:05 AM 44.8910 -63.6540 61° Northeast 542 624 33,000  Level FlightAware ADS-B
Thu 12:50:46 AM 44.9410 -63.5240 61° Northeast 541 623 33,000  Level FlightAware ADS-B
Thu 12:51:47 AM 45.0020 -63.3620 62° Northeast 541 623 33,000  Level FlightAware ADS-B
Thu 12:52:23 AM 45.0380 -63.2660 62° Northeast 541 623 33,000  Level FlightAware ADS-B
Thu 12:53:09 AM 45.0840 -63.1440 62° Northeast 541 623 33,000  Level FlightAware ADS-B
Thu 12:53:45 AM 45.1200 -63.0480 62° Northeast 541 623 33,000  Level FlightAware ADS-B
Thu 12:54:34 AM 45.1690 -62.9170 62° Northeast 541 623 33,000  Level FlightAware ADS-B
Thu 12:55:11 AM 45.2060 -62.8190 62° Northeast 541 623 33,000  Level FlightAware ADS-B
Thu 12:55:50 AM 45.2450 -62.7150 62° Northeast 541 623 33,000  Level FlightAware ADS-B
Thu 12:56:37 AM 45.2920 -62.5890 62° Northeast 541 623 33,000  Level FlightAware ADS-B
Thu 12:57:14 AM 45.3290 -62.4900 62° Northeast 541 623 33,000  Level FlightAware ADS-B
Thu 12:58:02 AM 45.3770 -62.3620 62° Northeast 541 623 33,000  Level FlightAware ADS-B
Thu 12:58:39 AM 45.4140 -62.2630 62° Northeast 541 623 33,000  Level FlightAware ADS-B
Thu 12:59:27 AM 45.4610 -62.1350 62° Northeast 541 623 33,000  Level FlightAware ADS-B
Thu 01:00:04 AM 45.4980 -62.0350 62° Northeast 541 623 33,000  Level FlightAware ADS-B
Thu 01:00:45 AM 45.5390 -61.9250 62° Northeast 541 623 33,000  Level FlightAware ADS-B
Thu 01:01:48 AM 45.7260 -61.4170 62° Northeast 562 647 33,000  Level FlightAware ADS-B
Thu 01:02:58 AM 45.8090 -61.1850 63° Northeast 565 650 33,000  Level FlightAware ADS-B
Thu 01:03:38 AM 45.8570 -61.0510 63° Northeast 567 652 33,000  Level FlightAware ADS-B
Thu 01:04:18 AM 45.9040 -60.9170 63° Northeast 568 654 33,000  Level FlightAware ADS-B
Thu 01:05:02 AM 45.9570 -60.7650 63° Northeast 570 656 33,000  Level FlightAware ADS-B
Thu 01:05:44 AM 46.0050 -60.6260 64° Northeast 571 657 33,000  Level FlightAware ADS-B
Thu 01:06:26 AM 46.0560 -60.4800 63° Northeast 572 658 33,000  Level FlightAware ADS-B
Thu 01:07:08 AM 46.1060 -60.3360 63° Northeast 574 661 33,000  Level FlightAware ADS-B
Thu 01:07:52 AM 46.1570 -60.1890 63° Northeast 575 662 33,000  Level FlightAware ADS-B
Thu 01:08:27 AM 46.1960 -60.0720 64° Northeast 574 661 33,000  Level FlightAware ADS-B
Thu 01:09:15 AM 46.2540 -59.9030 64° Northeast 576 663 33,000  Level FlightAware ADS-B
Thu 01:09:57 AM 46.3020 -59.7580 64° Northeast 578 665 33,000  Level FlightAware ADS-B
Thu 01:10:36 AM 46.3480 -59.6260 63° Northeast 582 670 33,000  Level FlightAware ADS-B
Thu 01:11:21 AM 46.3880 -59.5030 65° Northeast 585 673 33,000  Level FlightAware ADS-B
Thu 01:12:03 AM 46.4510 -59.3150 64° Northeast 587 676 33,000  Level FlightAware ADS-B
Thu 01:12:41 AM 46.4950 -59.1800 65° Northeast 588 677 33,000  Level FlightAware ADS-B
Thu 01:13:27 AM 46.5500 -59.0120 64° Northeast 590 679 33,000  Level FlightAware ADS-B
Thu 01:14:11 AM 46.6010 -58.8550 65° Northeast 592 681 33,000  Level FlightAware ADS-B
Thu 01:14:51 AM 46.6470 -58.7140 65° Northeast 593 682 33,000  Level FlightAware ADS-B
Thu 01:15:32 AM 46.6920 -58.5770 64° Northeast 593 682 33,000  Level FlightAware ADS-B
Thu 01:16:22 AM 46.7480 -58.4050 65° Northeast 593 682 33,000  Level FlightAware ADS-B
Thu 01:17:10 AM 46.7970 -58.2580 64° Northeast 593 682 33,000  Level FlightAware ADS-B
Thu 01:17:47 AM 46.8350 -58.1440 64° Northeast 593 682 33,000  Level FlightAware ADS-B
Thu 01:18:34 AM 46.8830 -58.0000 64° Northeast 593 682 33,000  Level FlightAware ADS-B
Thu 01:19:10 AM 46.9200 -57.8900 64° Northeast 593 682 33,000  Level FlightAware ADS-B
Thu 01:19:57 AM 47.0000 -57.6000 68° East 33,000  Level FlightAware ADS-B
Thu 01:20:52 AM 47.0640 -57.3930 66° East 599 689 33,000  Level FlightAware ADS-B
Thu 01:21:32 AM 47.1090 -57.2440 66° East 599 689 33,000  Level FlightAware ADS-B
Thu 01:22:17 AM 47.1590 -57.0770 66° East 598 688 33,000  Level FlightAware ADS-B
Thu 01:22:57 AM 47.2040 -56.9290 66° East 598 688 33,000  Level FlightAware ADS-B
Thu 01:23:42 AM 47.2540 -56.7610 66° East 599 689 33,000  Level FlightAware ADS-B
Thu 01:24:22 AM 47.2980 -56.6120 66° East 597 687 33,000  Level FlightAware ADS-B
Thu 01:25:07 AM 47.3480 -56.4400 67° East 598 688 33,000  Level FlightAware ADS-B
Thu 01:25:42 AM 47.3850 -56.3170 66° East 597 687 33,000  Level FlightAware ADS-B
Thu 01:26:28 AM 47.4330 -56.1520 67° East 599 689 33,000  Level FlightAware ADS-B
Thu 01:27:12 AM 47.4820 -55.9830 67° East 600 690 33,000  Level FlightAware ADS-B
Thu 01:27:57 AM 47.5330 -55.8020 67° East 598 688 33,000  Level FlightAware ADS-B
Thu 01:28:37 AM 47.5760 -55.6520 67° East 592 681 33,000  Level FlightAware ADS-B
Thu 01:29:12 AM 47.6130 -55.5250 67° East 591 680 33,000  Level FlightAware ADS-B
Thu 01:29:57 AM 47.6600 -55.3530 68° East 593 682 33,000  Level FlightAware ADS-B
Thu 01:30:37 AM 47.6940 -55.2370 66° East 593 682 33,000  Level FlightAware ADS-B
Thu 01:31:26 AM 47.7530 -55.0220 68° East 594 684 33,000  Level FlightAware ADS-B
Thu 01:32:07 AM 47.7950 -54.8680 68° East 595 685 33,000  Level FlightAware ADS-B
Thu 01:32:45 AM 47.8360 -54.7200 68° East 597 687 33,000  Level FlightAware ADS-B
Thu 01:33:33 AM 47.8860 -54.5370 68° East 598 688 33,000  Level FlightAware ADS-B
Thu 01:34:12 AM 47.9250 -54.3920 68° East 599 689 33,000  Level FlightAware ADS-B
Thu 01:34:53 AM 47.9670 -54.2340 68° East 600 690 33,000  Level FlightAware ADS-B
Thu 01:35:52 AM 48.0290 -54.0040 68° East 599 689 33,000  Level FlightAware ADS-B
Thu 01:36:31 AM 48.0680 -53.8580 68° East 599 689 33,000  Level FlightAware ADS-B
Thu 01:37:16 AM 48.1130 -53.6840 69° East 599 689 33,000  Level FlightAware ADS-B
Thu 01:37:56 AM 48.1540 -53.5260 69° East 599 689 33,000  Level FlightAware ADS-B
Thu 01:38:40 AM 48.1980 -53.3560 69° East 598 688 33,000  Level FlightAware ADS-B
Thu 01:39:20 AM 48.2370 -53.2050 69° East 598 688 33,000  Level FlightAware ADS-B
Thu 01:40:06 AM 48.2670 -53.0220 76° East 594 684 33,000  Level FlightAware ADS-B
Thu 01:40:43 AM 48.2940 -52.8700 75° East 596 686 33,000 76 Level FlightAware ADS-B
Thu 01:41:25 AM 48.3290 -52.7090 72° East 597 687 33,100 698 Climbing FlightAware ADS-B
Thu 01:42:09 AM 48.3700 -52.5380 70° East 593 682 34,000 643 Climbing FlightAware ADS-B
Thu 01:42:49 AM 48.4080 -52.3800 70° East 591 680 34,000 -750 Level FlightAware ADS-B
Thu 01:43:29 AM 48.2400 -53.1940 253° West 598 688 33,000 -714 Descending FlightAware ADS-B
Thu 01:44:13 AM 48.2610 -53.0660 76° East 594 684 33,000  Level FlightAware ADS-B
Thu 01:44:57 AM 48.2830 -52.9300 76° East 596 686 33,000  Level FlightAware ADS-B
Thu 01:45:32 AM 48.3260 -52.7250 72° East 597 687 33,000 638 Level FlightAware ADS-B
Thu 01:46:31 AM 48.3770 -52.5110 70° East 592 681 34,000 600 Climbing FlightAware ADS-B
Thu 01:47:12 AM 48.6520 -51.3710 70° East 585 673 34,000  Level FlightAware ADS-B
Thu 01:47:21 AM 48.1333 -53.6000 69° East 604 695 34,000  Level ETMS Enhanced Traffic Management System
Thu 01:47:57 AM 48.6920 -51.2000 70° East 588 677 34,000  Level FlightAware ADS-B
Thu 01:48:38 AM 48.7250 -51.0610 70° East 589 678 34,000  Level FlightAware ADS-B
Thu 01:49:30 AM 48.7740 -50.8520 70° East 589 678 34,000  Level FlightAware ADS-B
Thu 01:50:19 AM 48.8130 -50.6900 70° East 589 678 34,000  Level FlightAware ADS-B
Thu 01:50:59 AM 48.8440 -50.5580 70° East 589 678 34,000  Level FlightAware ADS-B
Thu 01:51:36 AM 48.8740 -50.4350 70° East 589 678 34,000  Level FlightAware ADS-B
Thu 01:52:24 AM 48.9120 -50.2760 69° East 589 678 34,000  Level FlightAware ADS-B
Thu 01:53:02 AM 48.9420 -50.1500 70° East 589 678 34,000  Level FlightAware ADS-B
Thu 01:53:52 AM 48.9810 -49.9850 70° East 589 678 34,000  Level FlightAware ADS-B
Thu 01:54:29 AM 49.0110 -49.8620 70° East 589 678 34,000  Level FlightAware ADS-B
Thu 01:55:00 AM 49.0000 -50.0000 69° East 563 648 34,000  Level ETMS Enhanced Traffic Management System
Thu 01:55:16 AM 49.0480 -49.7060 70° East 589 678 34,000  Level FlightAware ADS-B
Thu 01:55:27 AM 49.0833 -49.4000 69° East 580 667 34,000  Level Gander Center
Thu 01:55:29 AM 49.0000 -50.0000 69° East 563 648 34,000  Level ETMS Enhanced Traffic Management System
Thu 01:55:52 AM 49.0760 -49.5860 70° East 589 678 34,000  Level FlightAware ADS-B
Thu 01:56:27 AM 49.1333 -49.1667 69° East 580 667 34,000  Level Gander Center
Thu 01:56:40 AM 49.1140 -49.4270 70° East 589 678 34,000  Level FlightAware ADS-B
Thu 01:57:16 AM 49.1430 -49.3070 70° East 589 678 34,000  Level FlightAware ADS-B
Thu 01:57:27 AM 49.1833 -48.9500 70° East 570 656 34,000  Level Gander Center
Thu 01:58:18 AM 49.1920 -49.1000 70° East 589 678 34,000  Level FlightAware ADS-B
Thu 01:58:27 AM 49.2500 -48.7167 66° East 570 656 34,000  Level Gander Center
Thu 01:58:54 AM 49.2200 -48.9800 70° East 589 678 34,000  Level FlightAware ADS-B
Thu 01:59:27 AM 49.3000 -48.4667 73° East 570 656 34,000  Level Gander Center
Thu 02:00:27 AM 49.3667 -48.2833 61° Northeast 570 656 34,000  Level Gander Center
Thu 02:02:00 AM 49.4387 -47.9817 70° East  Level FlightAware Approximate
Thu 02:09:00 AM 49.7791 -46.4962 70° East  Level FlightAware Approximate
Thu 02:10:00 AM 49.8262 -46.2823 71° East  Level FlightAware Approximate
Thu 02:11:00 AM 49.8729 -46.0680 71° East  Level FlightAware Approximate
Thu 02:12:00 AM 49.9192 -45.8533 71° East  Level FlightAware Approximate
Thu 02:13:00 AM 49.9651 -45.6382 72° East  Level FlightAware Approximate
Thu 02:14:00 AM 50.0106 -45.4226 72° East  Level FlightAware Approximate
Thu 02:15:00 AM 50.0556 -45.2067 72° East  Level FlightAware Approximate
Thu 02:16:00 AM 50.1003 -44.9903 72° East  Level FlightAware Approximate
Thu 02:17:00 AM 50.1446 -44.7735 72° East  Level FlightAware Approximate
Thu 02:18:00 AM 50.1885 -44.5564 72° East  Level FlightAware Approximate
Thu 02:19:00 AM 50.2320 -44.3388 73° East  Level FlightAware Approximate
Thu 02:20:00 AM 50.2750 -44.1209 73° East  Level FlightAware Approximate
Thu 02:21:00 AM 50.3177 -43.9025 73° East  Level FlightAware Approximate
Thu 02:22:00 AM 50.3600 -43.6838 73° East  Level FlightAware Approximate
Thu 02:23:00 AM 50.4018 -43.4647 73° East  Level FlightAware Approximate
Thu 02:24:00 AM 50.4432 -43.2452 73° East  Level FlightAware Approximate
Thu 02:25:00 AM 50.4842 -43.0253 74° East  Level FlightAware Approximate
Thu 02:26:00 AM 50.5248 -42.8050 74° East  Level FlightAware Approximate
Thu 02:27:00 AM 50.5650 -42.5844 74° East  Level FlightAware Approximate
Thu 02:28:00 AM 50.6048 -42.3633 74° East  Level FlightAware Approximate
Thu 02:29:00 AM 50.6441 -42.1420 74° East  Level FlightAware Approximate
Thu 02:30:00 AM 50.6830 -41.9202 74° East  Level FlightAware Approximate
Thu 02:31:00 AM 50.7215 -41.6981 75° East  Level FlightAware Approximate
Thu 02:32:00 AM 50.7596 -41.4756 75° East  Level FlightAware Approximate
Thu 02:33:00 AM 50.7973 -41.2527 75° East  Level FlightAware Approximate
Thu 02:34:00 AM 50.8345 -41.0295 75° East  Level FlightAware Approximate
Thu 02:35:00 AM 50.8713 -40.8060 75° East  Level FlightAware Approximate
Thu 02:36:00 AM 50.9077 -40.5820 75° East  Level FlightAware Approximate
Thu 02:37:00 AM 50.9437 -40.3578 76° East  Level FlightAware Approximate
Thu 02:37:00 AM 51.0000 -40.0000 86° East 539 620 34,000  Level ETMS Enhanced Traffic Management System
Thu 02:38:00 AM 50.9792 -40.1332 76° East  Level FlightAware Approximate
Thu 02:39:00 AM 51.0040 -39.9057 86° East  Level FlightAware Approximate
Thu 02:40:00 AM 51.0132 -39.6821 86° East  Level FlightAware Approximate
Thu 02:41:00 AM 51.0219 -39.4584 86° East  Level FlightAware Approximate
Thu 02:42:00 AM 51.0302 -39.2346 87° East  Level FlightAware Approximate
Thu 02:43:00 AM 51.0593 -38.3362 87° East 539 620 34,000  Level FlightAware Transoceanic
Thu 02:44:00 AM 51.0658 -38.0982 88° East 539 620 34,000  Level FlightAware Transoceanic
Thu 02:45:00 AM 51.0719 -37.8601 88° East 539 620 34,000  Level FlightAware Transoceanic
Thu 02:46:00 AM 51.0775 -37.6220 88° East 539 620 34,000  Level FlightAware Transoceanic
Thu 02:47:00 AM 51.0826 -37.3838 88° East 539 620 34,000  Level FlightAware Transoceanic
Thu 02:48:00 AM 51.0872 -37.1455 88° East 539 620 34,000  Level FlightAware Transoceanic
Thu 02:49:00 AM 51.0913 -36.9073 89° East 539 620 34,000  Level FlightAware Transoceanic
Thu 02:50:00 AM 51.0949 -36.6689 89° East 539 620 34,000  Level FlightAware Transoceanic
Thu 02:51:00 AM 51.0981 -36.4306 89° East 539 620 34,000  Level FlightAware Transoceanic
Thu 02:52:00 AM 51.1007 -36.1922 89° East 539 620 34,000  Level FlightAware Transoceanic
Thu 02:53:00 AM 51.1029 -35.9538 89° East 539 620 34,000  Level FlightAware Transoceanic
Thu 02:54:00 AM 51.1046 -35.7154 89° East 539 620 34,000  Level FlightAware Transoceanic
Thu 02:55:00 AM 51.1058 -35.4769 90° East 539 620 34,000  Level FlightAware Transoceanic
Thu 02:56:00 AM 51.1065 -35.2385 90° East 539 620 34,000  Level FlightAware Transoceanic
Thu 02:57:00 AM 51.1068 -35.0000 90° East 539 620 34,000  Level FlightAware Transoceanic
Thu 02:58:00 AM 51.1065 -34.7615 90° East 539 620 34,000  Level FlightAware Transoceanic
Thu 02:59:00 AM 51.1058 -34.5231 90° East 539 620 34,000  Level FlightAware Transoceanic
Thu 03:00:00 AM 51.1046 -34.2846 91° East 539 620 34,000  Level FlightAware Transoceanic
Thu 03:01:00 AM 51.1029 -34.0462 91° East 539 620 34,000  Level FlightAware Transoceanic
Thu 03:02:00 AM 51.1007 -33.8078 91° East 539 620 34,000  Level FlightAware Transoceanic
Thu 03:03:00 AM 51.0981 -33.5694 91° East 539 620 34,000  Level FlightAware Transoceanic
Thu 03:04:00 AM 51.0949 -33.3311 91° East 539 620 34,000  Level FlightAware Transoceanic
Thu 03:05:00 AM 51.0913 -33.0927 91° East 539 620 34,000  Level FlightAware Transoceanic
Thu 03:06:00 AM 51.0872 -32.8545 92° East 539 620 34,000  Level FlightAware Transoceanic
Thu 03:07:00 AM 51.0826 -32.6162 92° East 539 620 34,000  Level FlightAware Transoceanic
Thu 03:08:00 AM 51.0775 -32.3780 92° East 539 620 34,000  Level FlightAware Transoceanic
Thu 03:09:00 AM 51.0719 -32.1399 92° East 539 620 34,000  Level FlightAware Transoceanic
Thu 03:10:00 AM 51.0658 -31.9018 92° East 539 620 34,000  Level FlightAware Transoceanic
Thu 03:11:00 AM 51.0593 -31.6638 93° East 539 620 34,000  Level FlightAware Transoceanic
Thu 03:12:00 AM 51.0523 -31.4259 93° East 539 620 34,000  Level FlightAware Transoceanic
Thu 03:13:00 AM 51.0448 -31.1880 93° East 539 620 34,000  Level FlightAware Transoceanic
Thu 03:14:00 AM 51.0368 -30.9502 93° East 539 620 34,000  Level FlightAware Transoceanic
Thu 03:15:00 AM 51.0283 -30.7125 93° East 539 620 34,000  Level FlightAware Transoceanic
Thu 03:16:00 AM 51.0193 -30.4749 94° East 539 620 34,000  Level FlightAware Transoceanic
Thu 03:17:00 AM 51.0099 -30.2374 94° East 539 620 34,000 200 Level FlightAware Transoceanic
Thu 03:18:00 AM 51.0006 -30.0138 94° East  Level FlightAware Approximate
Thu 03:19:00 AM 50.9908 -29.7903 94° East  Level FlightAware Approximate
Thu 03:20:00 AM 51.0082 -29.8041 86° East  Level FlightAware Approximate
Thu 03:21:00 AM 51.0172 -29.5804 86° East  Level FlightAware Approximate
Thu 03:21:00 AM 51.0000 -30.0000 86° East 514 592 35,000  Level ETMS Enhanced Traffic Management System
Thu 03:22:00 AM 51.0257 -29.3566 86° East  Level FlightAware Approximate
Thu 03:23:00 AM 51.0339 -29.1328 87° East  Level FlightAware Approximate
Thu 03:24:00 AM 51.0416 -28.9089 87° East  Level FlightAware Approximate
Thu 03:25:00 AM 51.0488 -28.6849 87° East  Level FlightAware Approximate
Thu 03:26:00 AM 51.0557 -28.4609 87° East  Level FlightAware Approximate
Thu 03:27:00 AM 51.0635 -28.1847 88° East 514 592 35,000  Level FlightAware Transoceanic
Thu 03:28:00 AM 51.0695 -27.9575 88° East 514 592 35,000  Level FlightAware Transoceanic
Thu 03:29:00 AM 51.0750 -27.7302 88° East 514 592 35,000  Level FlightAware Transoceanic
Thu 03:30:00 AM 51.0801 -27.5029 88° East 514 592 35,000  Level FlightAware Transoceanic
Thu 03:31:00 AM 51.0847 -27.2755 88° East 514 592 35,000  Level FlightAware Transoceanic
Thu 03:32:00 AM 51.0889 -27.0481 88° East 514 592 35,000  Level FlightAware Transoceanic
Thu 03:33:00 AM 51.0927 -26.8206 89° East 514 592 35,000  Level FlightAware Transoceanic
Thu 03:34:00 AM 51.0960 -26.5931 89° East 514 592 35,000  Level FlightAware Transoceanic
Thu 03:35:00 AM 51.0988 -26.3656 89° East 514 592 35,000  Level FlightAware Transoceanic
Thu 03:36:00 AM 51.1013 -26.1380 89° East 514 592 35,000  Level FlightAware Transoceanic
Thu 03:37:00 AM 51.1033 -25.9104 89° East 514 592 35,000  Level FlightAware Transoceanic
Thu 03:38:00 AM 51.1048 -25.6828 89° East 514 592 35,000  Level FlightAware Transoceanic
Thu 03:39:00 AM 51.1059 -25.4552 90° East 514 592 35,000  Level FlightAware Transoceanic
Thu 03:40:00 AM 51.1066 -25.2276 90° East 514 592 35,000  Level FlightAware Transoceanic
Thu 03:41:00 AM 51.1068 -25.0000 90° East 514 592 35,000  Level FlightAware Transoceanic
Thu 03:42:00 AM 51.1066 -24.7724 90° East 514 592 35,000  Level FlightAware Transoceanic
Thu 03:43:00 AM 51.1059 -24.5448 90° East 514 592 35,000  Level FlightAware Transoceanic
Thu 03:44:00 AM 51.1048 -24.3172 91° East 514 592 35,000  Level FlightAware Transoceanic
Thu 03:45:00 AM 51.1033 -24.0896 91° East 514 592 35,000  Level FlightAware Transoceanic
Thu 03:46:00 AM 51.1013 -23.8620 91° East 514 592 35,000  Level FlightAware Transoceanic
Thu 03:47:00 AM 51.0988 -23.6344 91° East 514 592 35,000  Level FlightAware Transoceanic
Thu 03:48:00 AM 51.0960 -23.4069 91° East 514 592 35,000  Level FlightAware Transoceanic
Thu 03:49:00 AM 51.0927 -23.1794 91° East 514 592 35,000  Level FlightAware Transoceanic
Thu 03:50:00 AM 51.0889 -22.9519 92° East 514 592 35,000  Level FlightAware Transoceanic
Thu 03:51:00 AM 51.0847 -22.7245 92° East 514 592 35,000  Level FlightAware Transoceanic
Thu 03:52:00 AM 51.0801 -22.4971 92° East 514 592 35,000  Level FlightAware Transoceanic
Thu 03:53:00 AM 51.0750 -22.2698 92° East 514 592 35,000  Level FlightAware Transoceanic
Thu 03:54:00 AM 51.0695 -22.0425 92° East 514 592 35,000  Level FlightAware Transoceanic
Thu 03:55:00 AM 51.0635 -21.8153 92° East 514 592 35,000  Level FlightAware Transoceanic
Thu 03:56:00 AM 51.0571 -21.5881 93° East 514 592 35,000  Level FlightAware Transoceanic
Thu 03:57:00 AM 51.0503 -21.3610 93° East 514 592 35,000  Level FlightAware Transoceanic
Thu 03:58:00 AM 51.0430 -21.1340 93° East 514 592 35,000  Level FlightAware Transoceanic
Thu 03:59:00 AM 51.0353 -20.9070 93° East 514 592 35,000  Level FlightAware Transoceanic
Thu 04:00:00 AM 51.0271 -20.6801 93° East 514 592 35,000  Level FlightAware Transoceanic
Thu 04:01:00 AM 51.0185 -20.4533 94° East 514 592 35,000  Level FlightAware Transoceanic
Thu 04:02:00 AM 51.0095 -20.2266 94° East 514 592 35,000  Level FlightAware Transoceanic
Thu 04:03:00 AM 51.0001 -20.0026 94° East  Level FlightAware Approximate
Thu 04:04:00 AM 50.9906 -19.7787 94° East  Level FlightAware Approximate
Thu 04:05:00 AM 50.9760 -19.7843 100° East  Level FlightAware Approximate
Thu 04:06:00 AM 50.9510 -19.5635 100° East  Level FlightAware Approximate
Thu 04:07:00 AM 50.9256 -19.3427 100° East  Level FlightAware Approximate
Thu 04:08:00 AM 50.8997 -19.1220 100° East  Level FlightAware Approximate
Thu 04:09:00 AM 50.8734 -18.9017 101° East  Level FlightAware Approximate
Thu 04:10:00 AM 50.8467 -18.6815 101° East  Level FlightAware Approximate
Thu 04:11:00 AM 50.8196 -18.4617 101° East  Level FlightAware Approximate
Thu 04:12:00 AM 50.7921 -18.2421 101° East  Level FlightAware Approximate
Thu 04:13:00 AM 50.7641 -18.0227 101° East  Level FlightAware Approximate
Thu 04:14:00 AM 50.7358 -17.8036 101° East  Level FlightAware Approximate
Thu 04:15:00 AM 50.7070 -17.5848 102° East  Level FlightAware Approximate
Thu 04:16:00 AM 50.6779 -17.3663 102° East  Level FlightAware Approximate
Thu 04:17:00 AM 50.6483 -17.1480 102° East  Level FlightAware Approximate
Thu 04:18:00 AM 50.6183 -16.9300 102° East  Level FlightAware Approximate
Thu 04:19:00 AM 50.5879 -16.7123 102° East  Level FlightAware Approximate
Thu 04:20:00 AM 50.5571 -16.4948 102° East  Level FlightAware Approximate
Thu 04:21:00 AM 50.5259 -16.2777 103° East  Level FlightAware Approximate
Thu 04:22:00 AM 50.4943 -16.0608 103° East  Level FlightAware Approximate
Thu 04:23:00 AM 50.4623 -15.8442 103° East  Level FlightAware Approximate
Thu 04:24:00 AM 50.4299 -15.6279 103° East  Level FlightAware Approximate
Thu 04:25:00 AM 50.3971 -15.4120 103° East  Level FlightAware Approximate
Thu 04:26:00 AM 50.3639 -15.1963 103° East  Level FlightAware Approximate
Thu 04:27:00 AM 50.3303 -14.9809 104° East  Level FlightAware Approximate
Thu 04:28:00 AM 50.2960 -14.7663 104° East  Level FlightAware Approximate
Thu 04:29:00 AM 50.2613 -14.5521 104° East  Level FlightAware Approximate
Thu 04:30:00 AM 50.2262 -14.3382 104° East  Level FlightAware Approximate
Thu 04:31:00 AM 50.1907 -14.1245 104° East  Level FlightAware Approximate
Thu 04:32:00 AM 50.1549 -13.9112 105° East  Level FlightAware Approximate
Thu 04:33:00 AM 50.1186 -13.6983 105° East  Level FlightAware Approximate
Thu 04:34:00 AM 50.0820 -13.4856 105° East  Level FlightAware Approximate
Thu 04:35:00 AM 50.0449 -13.2733 105° East  Level FlightAware Approximate
Thu 04:36:00 AM 50.0075 -13.0613 105° East  Level FlightAware Approximate
Thu 04:37:00 AM 49.9697 -12.8496 105° East  Level FlightAware Approximate
Thu 04:38:00 AM 49.9315 -12.6383 106° East  Level FlightAware Approximate
Thu 04:39:00 AM 49.8929 -12.4273 106° East  Level FlightAware Approximate
Thu 04:40:00 AM 49.8540 -12.2166 106° East  Level FlightAware Approximate
Thu 04:41:00 AM 49.8146 -12.0063 106° East  Level FlightAware Approximate
Thu 04:42:00 AM 49.7749 -11.7963 106° East  Level FlightAware Approximate
Thu 04:43:00 AM 49.7348 -11.5867 106° East  Level FlightAware Approximate
Thu 04:44:00 AM 49.6943 -11.3774 107° East  Level FlightAware Approximate
Thu 04:45:00 AM 49.6535 -11.1684 107° East  Level FlightAware Approximate
Thu 04:46:00 AM 49.6123 -10.9599 107° East  Level FlightAware Approximate
Thu 04:46:35 AM 50.0090 -10.9700 107° East 464 534 35,000  Level FlightAware ADS-B
Thu 04:47:00 AM 49.5707 -10.7516 107° East  Level FlightAware Approximate
Thu 04:47:27 AM 49.9740 -10.8340 112° Southeast 464 534 35,000  Level FlightAware ADS-B
Thu 04:48:03 AM 49.9490 -10.7390 112° Southeast 464 534 35,000  Level FlightAware ADS-B
Thu 04:48:58 AM 49.8940 -10.5430 113° Southeast 463 533 35,000  Level FlightAware ADS-B
Thu 04:49:46 AM 49.8610 -10.4180 112° Southeast 463 533 35,000  Level FlightAware ADS-B
Thu 04:50:22 AM 49.8370 -10.3230 111° Southeast 463 533 35,000  Level FlightAware ADS-B
Thu 04:51:10 AM 49.8040 -10.1980 112° Southeast 463 533 35,000  Level FlightAware ADS-B
Thu 04:51:46 AM 49.7790 -10.1040 112° Southeast 463 533 35,000  Level FlightAware ADS-B
Thu 04:52:30 AM 49.7120 -9.8880 116° Southeast 466 536 35,000  Level FlightAware ADS-B
Thu 04:53:07 AM 49.6850 -9.7910 113° Southeast 466 536 35,000  Level FlightAware ADS-B
Thu 04:53:55 AM 49.6380 -9.6250 114° Southeast 468 539 35,000  Level FlightAware ADS-B
Thu 04:54:39 AM 49.5990 -9.4910 114° Southeast 468 539 35,000  Level FlightAware ADS-B
Thu 04:55:34 AM 49.5510 -9.3230 114° Southeast 467 537 35,000  Level FlightAware ADS-B
Thu 04:56:13 AM 49.5160 -9.2010 114° Southeast 467 537 35,000  Level FlightAware ADS-B
Thu 04:56:59 AM 49.4770 -9.0650 114° Southeast 466 536 35,000  Level FlightAware ADS-B
Thu 04:57:26 AM 49.4511 -8.9793 114° Southeast 490 564 35,000  Level FlightAware UK
Thu 04:57:40 AM 49.4410 -8.9410 114° Southeast 465 535 35,000  Level FlightAware ADS-B
Thu 04:57:56 AM 49.4248 -8.8891 114° Southeast 490 564 35,000  Level FlightAware UK
Thu 04:58:14 AM 49.4090 -8.8348 114° Southeast 490 564 35,000  Level FlightAware UK
Thu 04:58:18 AM 49.4080 -8.8330 114° Southeast 465 535 35,000  Level FlightAware ADS-B
Thu 04:58:38 AM 49.3877 -8.7627 114° Southeast 490 564 35,000  Level FlightAware UK
Thu 04:58:56 AM 49.3718 -8.7085 114° Southeast 490 564 35,000  Level FlightAware UK
Thu 04:59:06 AM 49.3650 -8.6860 114° Southeast 464 534 35,000  Level FlightAware ADS-B
Thu 04:59:26 AM 49.3451 -8.6186 114° Southeast 490 564 35,000  Level FlightAware UK
Thu 04:59:44 AM 49.3291 -8.5648 115° Southeast 488 562 35,000  Level FlightAware UK
Thu 04:59:46 AM 49.3290 -8.5630 115° Southeast 463 533 35,000  Level FlightAware ADS-B
Thu 05:00:02 AM 49.3131 -8.5111 115° Southeast 486 559 35,000  Level FlightAware UK
Thu 05:00:11 AM 49.3060 -8.4860 115° Southeast 463 533 35,000  Level FlightAware ADS-B
Thu 05:00:20 AM 49.2970 -8.4574 115° Southeast 486 559 35,000  Level FlightAware UK
Thu 05:00:32 AM 49.2864 -8.4216 115° Southeast 486 559 35,000  Level FlightAware UK
Thu 05:00:50 AM 49.2703 -8.3679 115° Southeast 486 559 35,000  Level FlightAware UK
Thu 05:01:01 AM 49.2610 -8.3390 115° Southeast 464 534 35,000  Level FlightAware ADS-B
Thu 05:01:20 AM 49.2435 -8.2786 115° Southeast 488 562 35,000  Level FlightAware UK
Thu 05:01:38 AM 49.2275 -8.2248 114° Southeast 488 562 35,000  Level FlightAware UK
Thu 05:01:41 AM 49.2250 -8.2170 114° Southeast 464 534 35,000  Level FlightAware ADS-B
Thu 05:01:56 AM 49.2114 -8.1713 114° Southeast 488 562 35,000  Level FlightAware UK
Thu 05:02:14 AM 49.1952 -8.1177 115° Southeast 490 564 35,000  Level FlightAware UK
Thu 05:02:25 AM 49.1860 -8.0890 115° Southeast 464 534 35,000  Level FlightAware ADS-B
Thu 05:02:44 AM 49.1680 -8.0285 115° Southeast 488 562 35,000  Level FlightAware UK
Thu 05:03:02 AM 49.1515 -7.9744 115° Southeast 488 562 35,000  Level FlightAware UK
Thu 05:03:05 AM 49.1490 -7.9670 115° Southeast 464 534 35,000  Level FlightAware ADS-B
Thu 05:03:20 AM 49.1352 -7.9209 115° Southeast 488 562 35,000  Level FlightAware UK
Thu 05:03:38 AM 49.1186 -7.8677 115° Southeast 488 562 35,000  Level FlightAware UK
Thu 05:03:50 AM 49.1090 -7.8380 115° Southeast 465 535 35,000  Level FlightAware ADS-B
Thu 05:04:08 AM 49.0905 -7.7794 115° Southeast 486 559 35,000  Level FlightAware UK
Thu 05:04:26 AM 49.0733 -7.7265 116° Southeast 486 559 35,000  Level FlightAware UK
Thu 05:04:30 AM 49.0710 -7.7200 116° Southeast 465 535 35,000  Level FlightAware ADS-B
Thu 05:04:50 AM 49.0503 -7.6561 116° Southeast 486 559 35,000  Level FlightAware UK
Thu 05:05:08 AM 49.0331 -7.6032 116° Southeast 488 562 35,000  Level FlightAware UK
Thu 05:05:10 AM 49.0330 -7.6020 116° Southeast 467 537 35,000  Level FlightAware ADS-B
Thu 05:05:26 AM 49.0160 -7.5502 116° Southeast 486 559 35,000  Level FlightAware UK
Thu 05:05:44 AM 48.9988 -7.4971 116° Southeast 486 559 35,000  Level FlightAware UK
Thu 05:05:52 AM 48.9920 -7.4770 116° Southeast 469 540 35,000  Level FlightAware ADS-B
Thu 05:06:08 AM 48.9759 -7.4261 116° Southeast 486 559 35,000  Level FlightAware UK
Thu 05:06:26 AM 48.9588 -7.3727 116° Southeast 488 562 35,000  Level FlightAware UK
Thu 05:06:36 AM 48.9500 -7.3470 116° Southeast 471 542 35,000  Level FlightAware ADS-B
Thu 05:06:56 AM 48.9301 -7.2835 116° Southeast 490 564 35,000  Level FlightAware UK
Thu 05:07:14 AM 48.9127 -7.2301 116° Southeast 490 564 35,000  Level FlightAware UK
Thu 05:07:15 AM 48.9120 -7.2280 116° Southeast 471 542 35,000  Level FlightAware ADS-B
Thu 05:07:32 AM 48.8953 -7.1767 116° Southeast 490 564 35,000  Level FlightAware UK
Thu 05:07:50 AM 48.8776 -7.1232 117° Southeast 488 562 35,000  Level FlightAware UK
Thu 05:08:01 AM 48.8670 -7.0920 117° Southeast 472 543 35,000  Level FlightAware ADS-B
Thu 05:08:20 AM 48.8482 -7.0340 117° Southeast 488 562 35,000  Level FlightAware UK
Thu 05:08:38 AM 48.8306 -6.9806 117° Southeast 488 562 35,000  Level FlightAware UK
Thu 05:08:41 AM 48.8290 -6.9760 117° Southeast 473 544 35,000  Level FlightAware ADS-B
Thu 05:08:56 AM 48.8129 -6.9271 117° Southeast 488 562 35,000  Level FlightAware UK
Thu 05:09:15 AM 48.7951 -6.8730 117° Southeast 490 564 35,000  Level FlightAware UK
Thu 05:09:21 AM 48.7890 -6.8540 117° Southeast 474 545 35,000  Level FlightAware ADS-B
Thu 05:09:39 AM 48.7716 -6.8016 117° Southeast 490 564 35,000  Level FlightAware UK
Thu 05:09:57 AM 48.7538 -6.7482 117° Southeast 490 564 35,000  Level FlightAware UK
Thu 05:10:01 AM 48.7500 -6.7350 117° Southeast 474 545 35,000  Level FlightAware ADS-B
Thu 05:10:21 AM 48.7301 -6.6770 117° Southeast 490 564 35,000  Level FlightAware UK
Thu 05:10:39 AM 48.7122 -6.6237 117° Southeast 490 564 35,000  Level FlightAware UK
Thu 05:10:41 AM 48.7290 -6.6730 117° Southeast 474 545 35,000  Level FlightAware ADS-B
Thu 05:10:57 AM 48.6944 -6.5704 117° Southeast 490 564 35,000  Level FlightAware UK
Thu 05:11:15 AM 48.6766 -6.5173 117° Southeast 490 564 35,000  Level FlightAware UK
Thu 05:11:30 AM 48.6690 -6.4930 117° Southeast 473 544 35,000  Level FlightAware ADS-B
Thu 05:11:51 AM 48.6408 -6.4111 117° Southeast 488 562 35,000  Level FlightAware UK
Thu 05:12:14 AM 48.6180 -6.3460 117° Southeast 473 544 35,000  Level FlightAware ADS-B
Thu 05:12:45 AM 48.5872 -6.2523 117° Southeast 488 562 35,000  Level FlightAware UK
Thu 05:12:54 AM 48.5790 -6.2280 117° Southeast 473 544 35,000  Level FlightAware ADS-B
Thu 05:13:09 AM 48.5632 -6.1819 117° Southeast 488 562 35,000  Level FlightAware UK
Thu 05:13:27 AM 48.5453 -6.1291 117° Southeast 488 562 35,000  Level FlightAware UK
Thu 05:13:34 AM 48.5390 -6.1110 117° Southeast 473 544 35,000  Level FlightAware ADS-B
Thu 05:13:57 AM 48.5155 -6.0410 117° Southeast 488 562 35,000  Level FlightAware UK
Thu 05:14:15 AM 48.4975 -5.9882 117° Southeast 488 562 35,000  Level FlightAware UK
Thu 05:14:17 AM 48.4960 -5.9850 117° Southeast 473 544 35,000  Level FlightAware ADS-B
Thu 05:14:33 AM 48.4795 -5.9354 117° Southeast 490 564 35,000  Level FlightAware UK
Thu 05:14:57 AM 48.4554 -5.8652 117° Southeast 490 564 35,000  Level FlightAware UK
Thu 05:14:59 AM 48.4530 -5.8620 117° Southeast 473 544 35,000  Level FlightAware ADS-B
Thu 05:15:15 AM 48.4373 -5.8125 117° Southeast 490 564 35,000  Level FlightAware UK
Thu 05:15:33 AM 48.4189 -5.7594 118° Southeast 490 564 35,000  Level FlightAware UK
Thu 05:15:41 AM 48.4120 -5.7420 118° Southeast 473 544 35,000  Level FlightAware ADS-B
Thu 05:15:57 AM 48.3947 -5.6895 118° Southeast 490 564 35,000  Level FlightAware UK
Thu 05:16:15 AM 48.3765 -5.6372 118° Southeast 488 562 35,000  Level FlightAware UK
Thu 05:16:23 AM 48.3700 -5.6200 118° Southeast 472 543 35,000  Level FlightAware ADS-B
Thu 05:16:45 AM 48.3463 -5.5502 118° Southeast 488 562 35,000  Level FlightAware UK
Thu 05:17:05 AM 48.3260 -5.4920 118° Southeast 473 544 35,000  Level FlightAware ADS-B
Thu 05:17:27 AM 48.3040 -5.4286 118° Southeast 486 559 35,000  Level FlightAware UK
Thu 05:17:45 AM 48.2857 -5.3764 118° Southeast 486 559 35,000  Level FlightAware UK
Thu 05:17:47 AM 48.2830 -5.3700 118° Southeast 473 544 35,000  Level FlightAware ADS-B
Thu 05:18:09 AM 48.2613 -5.3068 118° Southeast 486 559 35,000  Level FlightAware UK
Thu 05:18:29 AM 48.2410 -5.2510 118° Southeast 474 545 35,000  Level FlightAware ADS-B
Thu 05:18:45 AM 48.2244 -5.2025 118° Southeast 486 559 35,000  Level FlightAware UK
Thu 05:19:10 AM 48.2000 -5.1350 118° Southeast 475 547 35,000  Level FlightAware ADS-B
Thu 05:19:55 AM 48.1520 -4.9980 118° Southeast 476 548 35,000  Level FlightAware ADS-B
Thu 05:20:37 AM 48.1080 -4.8790 119° Southeast 476 548 35,000  Level FlightAware ADS-B
Thu 05:21:17 AM 48.0660 -4.7600 118° Southeast 477 549 35,000  Level FlightAware ADS-B
Thu 05:22:01 AM 48.0210 -4.6350 118° Southeast 479 551 35,000  Level FlightAware ADS-B
Thu 05:22:41 AM 47.9790 -4.5180 118° Southeast 479 551 35,000  Level FlightAware ADS-B
Thu 05:23:25 AM 47.9320 -4.3900 119° Southeast 480 552 35,000  Level FlightAware ADS-B
Thu 05:24:06 AM 47.8910 -4.2770 118° Southeast 481 554 35,000  Level FlightAware ADS-B
Thu 05:24:49 AM 47.8430 -4.1460 119° Southeast 481 554 35,000  Level FlightAware ADS-B
Thu 05:25:29 AM 47.8000 -4.0310 119° Southeast 480 552 35,000  Level FlightAware ADS-B
Thu 05:26:11 AM 47.7550 -3.9090 119° Southeast 480 552 35,000  Level FlightAware ADS-B
Thu 05:26:53 AM 47.7100 -3.7880 119° Southeast 479 551 35,000  Level FlightAware ADS-B
Thu 05:27:37 AM 47.6620 -3.6590 119° Southeast 480 552 35,000  Level FlightAware ADS-B
Thu 05:28:15 AM 47.6220 -3.5530 119° Southeast 480 552 35,000  Level FlightAware ADS-B
Thu 05:29:01 AM 47.5730 -3.4210 119° Southeast 480 552 35,000  Level FlightAware ADS-B
Thu 05:29:43 AM 47.5270 -3.3000 119° Southeast 481 554 35,000  Level FlightAware ADS-B
Thu 05:30:17 AM 47.4900 -3.2020 119° Southeast 481 554 35,000  Level FlightAware ADS-B
Thu 05:31:07 AM 47.4350 -3.0560 119° Southeast 482 555 35,000  Level FlightAware ADS-B
Thu 05:31:48 AM 47.3900 -2.9420 120° Southeast 482 555 35,000  Level FlightAware ADS-B
Thu 05:32:30 AM 47.3440 -2.8220 119° Southeast 482 555 35,000  Level FlightAware ADS-B
Thu 05:33:10 AM 47.2990 -2.7080 120° Southeast 481 554 35,000  Level FlightAware ADS-B
Thu 05:33:54 AM 47.2510 -2.5830 119° Southeast 482 555 35,000  Level FlightAware ADS-B
Thu 05:34:34 AM 47.2060 -2.4690 120° Southeast 483 556 35,000  Level FlightAware ADS-B
Thu 05:35:20 AM 47.1540 -2.3360 120° Southeast 483 556 35,000  Level FlightAware ADS-B
Thu 05:35:54 AM 47.1160 -2.2390 120° Southeast 484 557 35,000  Level FlightAware ADS-B
Thu 05:36:37 AM 47.0740 -2.1310 120° Southeast 484 557 35,000  Level FlightAware ADS-B
Thu 05:37:18 AM 47.0230 -2.0040 120° Southeast 484 557 35,000  Level FlightAware ADS-B
Thu 05:38:04 AM 46.9700 -1.8730 121° Southeast 486 559 35,000  Level FlightAware ADS-B
Thu 05:38:42 AM 46.9270 -1.7630 120° Southeast 487 560 35,000  Level FlightAware ADS-B
Thu 05:39:28 AM 46.8740 -1.6320 121° Southeast 487 560 35,000  Level FlightAware ADS-B
Thu 05:40:08 AM 46.8290 -1.5220 121° Southeast 488 562 35,000  Level FlightAware ADS-B
Thu 05:40:49 AM 46.7810 -1.4060 121° Southeast 489 563 35,000  Level FlightAware ADS-B
Thu 05:41:29 AM 46.7360 -1.2930 120° Southeast 489 563 35,000  Level FlightAware ADS-B
Thu 05:42:13 AM 46.6840 -1.1680 121° Southeast 490 564 35,000  Level FlightAware ADS-B
Thu 05:42:55 AM 46.6350 -1.0470 120° Southeast 489 563 35,000  Level FlightAware ADS-B
Thu 05:43:37 AM 46.5860 -0.9280 121° Southeast 488 562 35,000  Level FlightAware ADS-B
Thu 05:44:21 AM 46.5350 -0.8070 121° Southeast 488 562 35,000  Level FlightAware ADS-B
Thu 05:44:59 AM 46.4950 -0.7100 121° Southeast 489 563 35,000  Level FlightAware ADS-B
Thu 05:45:54 AM 46.4270 -0.5470 121° Southeast 491 565 35,000  Level FlightAware ADS-B
Thu 05:46:39 AM 46.3760 -0.4230 121° Southeast 486 559 35,000  Level FlightAware ADS-B
Thu 05:47:19 AM 46.3300 -0.3100 120° Southeast 487 560 35,000  Level FlightAware ADS-B
Thu 05:47:59 AM 46.2850 -0.2030 121° Southeast 488 562 35,000  Level FlightAware ADS-B
Thu 05:48:44 AM 46.2310 -0.0740 121° Southeast 492 566 35,000  Level FlightAware ADS-B
Thu 05:49:24 AM 46.1850 0.0350 121° Southeast 491 565 35,000  Level FlightAware ADS-B
Thu 05:50:09 AM 46.1290 0.1670 121° Southeast 492 566 35,000  Level FlightAware ADS-B
Thu 05:50:49 AM 46.0810 0.2780 122° Southeast 492 566 35,000  Level FlightAware ADS-B
Thu 05:51:43 AM 46.0250 0.4180 120° Southeast 490 564 35,000  Level FlightAware ADS-B
Thu 05:52:24 AM 45.9870 0.5610 111° Southeast 495 570 35,000  Level FlightAware ADS-B
Thu 05:53:12 AM 45.9560 0.6810 110° East 492 566 35,000  Level FlightAware ADS-B
Thu 05:53:49 AM 45.9210 0.8100 111° Southeast 495 570 35,000  Level FlightAware ADS-B
Thu 05:54:37 AM 45.8800 0.9640 111° Southeast 495 570 35,000  Level FlightAware ADS-B
Thu 05:55:17 AM 45.8500 1.0800 110° East 494 568 35,000  Level FlightAware ADS-B
Thu 05:56:02 AM 45.8100 1.2260 111° Southeast 492 566 35,000  Level FlightAware ADS-B
Thu 05:56:42 AM 45.7780 1.3450 111° Southeast 492 566 35,000  Level FlightAware ADS-B
Thu 05:57:22 AM 45.7430 1.4720 112° Southeast 493 567 35,000  Level FlightAware ADS-B
Thu 05:58:06 AM 45.7070 1.6050 111° Southeast 492 566 35,000  Level FlightAware ADS-B
Thu 05:58:50 AM 45.6700 1.7380 112° Southeast 490 564 35,000  Level FlightAware ADS-B
Thu 05:59:31 AM 45.6370 1.8580 111° Southeast 490 564 35,000  Level FlightAware ADS-B
Thu 06:00:12 AM 45.6010 1.9880 112° Southeast 491 565 35,000  Level FlightAware ADS-B
Thu 06:00:52 AM 45.5600 2.1040 117° Southeast 494 568 35,000  Level FlightAware ADS-B
Thu 06:01:38 AM 45.5110 2.2330 118° Southeast 495 570 35,000  Level FlightAware ADS-B
Thu 06:02:18 AM 45.4680 2.3480 118° Southeast 496 571 35,000  Level FlightAware ADS-B
Thu 06:02:54 AM 45.4300 2.4520 117° Southeast 496 571 35,000  Level FlightAware ADS-B
Thu 06:03:36 AM 45.3850 2.5740 118° Southeast 498 573 35,000  Level FlightAware ADS-B
Thu 06:04:35 AM 45.3370 2.7080 117° Southeast 495 570 35,000  Level FlightAware ADS-B
Thu 06:05:12 AM 45.2810 2.8520 119° Southeast 499 574 35,000  Level FlightAware ADS-B
Thu 06:06:22 AM 45.2070 3.0510 118° Southeast 499 574 35,000  Level FlightAware ADS-B
Thu 06:07:02 AM 45.1630 3.1700 118° Southeast 499 574 35,000  Level FlightAware ADS-B
Thu 06:07:47 AM 45.1150 3.2940 119° Southeast 498 573 35,000  Level FlightAware ADS-B
Thu 06:08:30 AM 45.0680 3.4200 118° Southeast 499 574 35,000  Level FlightAware ADS-B
Thu 06:09:10 AM 45.0240 3.5390 118° Southeast 501 577 35,000  Level FlightAware ADS-B
Thu 06:09:54 AM 44.9920 3.6760 108° East 501 577 35,000  Level FlightAware ADS-B
Thu 06:10:49 AM 44.9560 3.8420 107° East 503 579 35,000  Level FlightAware ADS-B
Thu 06:11:25 AM 44.9310 3.9510 108° East 504 580 35,000  Level FlightAware ADS-B
Thu 06:12:15 AM 44.8980 4.0960 108° East 504 580 35,000  Level FlightAware ADS-B
Thu 06:12:57 AM 44.8620 4.2410 109° East 505 581 35,000  Level FlightAware ADS-B
Thu 06:13:37 AM 44.8210 4.3650 115° Southeast 501 577 35,000  Level FlightAware ADS-B
Thu 06:14:17 AM 44.7780 4.4660 121° Southeast 502 578 35,000  Level FlightAware ADS-B
Thu 06:15:02 AM 44.7250 4.5960 120° Southeast 501 577 35,000  Level FlightAware ADS-B
Thu 06:15:42 AM 44.6780 4.7160 119° Southeast 501 577 35,000  Level FlightAware ADS-B
Thu 06:16:22 AM 44.6330 4.8330 118° Southeast 499 574 35,000  Level FlightAware ADS-B
Thu 06:17:07 AM 44.5850 4.9550 119° Southeast 499 574 35,000  Level FlightAware ADS-B
Thu 06:18:02 AM 44.5270 5.1020 119° Southeast 498 573 35,000  Level FlightAware ADS-B
Thu 06:18:47 AM 44.4720 5.2360 120° Southeast 493 567 35,000  Level FlightAware ADS-B
Thu 06:19:28 AM 44.4240 5.3490 121° Southeast 493 567 35,000  Level FlightAware ADS-B
Thu 06:20:07 AM 44.3780 5.4610 120° Southeast 493 567 35,000  Level FlightAware ADS-B
Thu 06:20:47 AM 44.3330 5.5690 120° Southeast 494 568 35,000  Level FlightAware ADS-B
Thu 06:21:32 AM 44.2790 5.6960 121° Southeast 494 568 35,000  Level FlightAware ADS-B
Thu 06:22:12 AM 44.2340 5.8010 121° Southeast 495 570 35,000  Level FlightAware ADS-B
Thu 06:22:57 AM 44.1830 5.9230 120° Southeast 496 571 35,000  Level FlightAware ADS-B
Thu 06:23:37 AM 44.1320 6.0420 121° Southeast 501 577 35,000  Level FlightAware ADS-B
Thu 06:24:22 AM 44.0800 6.1640 121° Southeast 502 578 35,000  Level FlightAware ADS-B
Thu 06:25:02 AM 44.0330 6.2720 121° Southeast 503 579 35,000  Level FlightAware ADS-B
Thu 06:25:42 AM 43.9820 6.3890 121° Southeast 503 579 35,000  Level FlightAware ADS-B
Thu 06:26:27 AM 43.9300 6.5100 121° Southeast 502 578 35,000  Level FlightAware ADS-B
Thu 06:27:07 AM 43.8800 6.6260 121° Southeast 503 579 35,000  Level FlightAware ADS-B
Thu 06:27:53 AM 43.8250 6.7500 122° Southeast 504 580 35,000  Level FlightAware ADS-B
Thu 06:28:33 AM 43.7760 6.8630 121° Southeast 505 581 35,000  Level FlightAware ADS-B
Thu 06:29:13 AM 43.7280 6.9730 121° Southeast 506 582 35,000  Level FlightAware ADS-B
Thu 06:29:54 AM 43.6800 7.0810 122° Southeast 506 582 35,000  Level FlightAware ADS-B
Thu 06:30:42 AM 43.6270 7.2140 119° Southeast 507 583 35,000  Level FlightAware ADS-B
Thu 06:31:19 AM 43.5830 7.3280 118° Southeast 506 582 35,000  Level FlightAware ADS-B
Thu 06:32:04 AM 43.5360 7.4500 118° Southeast 507 583 35,000  Level FlightAware ADS-B
Thu 06:32:44 AM 43.4900 7.5670 118° Southeast 506 582 35,000  Level FlightAware ADS-B
Thu 06:33:24 AM 43.4440 7.6830 119° Southeast 507 583 35,000  Level FlightAware ADS-B
Thu 06:34:09 AM 43.3970 7.8020 118° Southeast 507 583 35,000  Level FlightAware ADS-B
Thu 06:34:49 AM 43.3520 7.9150 119° Southeast 507 583 35,000  Level FlightAware ADS-B
Thu 06:35:45 AM 43.2900 8.0730 118° Southeast 508 585 35,000  Level FlightAware ADS-B
Thu 06:36:24 AM 43.2420 8.1910 119° Southeast 508 585 35,000  Level FlightAware ADS-B
Thu 06:37:09 AM 43.1930 8.3160 118° Southeast 508 585 35,000  Level FlightAware ADS-B
Thu 06:37:56 AM 43.1370 8.4530 119° Southeast 507 583 35,000  Level FlightAware ADS-B
Thu 06:38:28 AM 43.1030 8.5370 119° Southeast 507 583 35,000  Level FlightAware ADS-B
Thu 06:39:14 AM 43.0490 8.6690 119° Southeast 506 582 35,000  Level FlightAware ADS-B
Thu 06:40:00 AM 42.9980 8.7950 119° Southeast 507 583 35,000  Level FlightAware ADS-B
Thu 06:40:41 AM 42.9500 8.9120 119° Southeast 507 583 35,000  Level FlightAware ADS-B
Thu 06:41:24 AM 42.9010 9.0290 120° Southeast 507 583 35,000  Level FlightAware ADS-B
Thu 06:42:02 AM 42.8560 9.1400 119° Southeast 506 582 35,000  Level FlightAware ADS-B
Thu 06:42:45 AM 42.8070 9.2570 120° Southeast 507 583 35,000  Level FlightAware ADS-B
Thu 06:43:31 AM 42.7550 9.3850 119° Southeast 506 582 35,000  Level FlightAware ADS-B
Thu 06:44:08 AM 42.7080 9.4800 124° Southeast 505 581 35,000  Level FlightAware ADS-B
Thu 06:44:54 AM 42.6460 9.6000 125° Southeast 505 581 35,000  Level FlightAware ADS-B
Thu 06:45:37 AM 42.5890 9.7160 124° Southeast 505 581 35,000  Level FlightAware ADS-B
Thu 06:46:13 AM 42.5420 9.8130 123° Southeast 505 581 35,000  Level FlightAware ADS-B
Thu 06:47:02 AM 42.4800 9.9380 124° Southeast 507 583 35,000  Level FlightAware ADS-B
Thu 06:47:41 AM 42.4270 10.0460 124° Southeast 508 585 35,000  Level FlightAware ADS-B
Thu 06:48:21 AM 42.3750 10.1490 124° Southeast 510 587 35,000  Level FlightAware ADS-B
Thu 06:49:07 AM 42.3140 10.2740 123° Southeast 512 589 35,000  Level FlightAware ADS-B
Thu 06:49:45 AM 42.2660 10.3690 124° Southeast 512 589 35,000  Level FlightAware ADS-B
Thu 06:50:58 AM 42.1680 10.5630 124° Southeast 514 592 35,000  Level FlightAware ADS-B
Thu 06:51:42 AM 42.1080 10.6820 124° Southeast 516 594 35,000  Level FlightAware ADS-B
Thu 06:52:22 AM 42.0570 10.7830 124° Southeast 516 594 35,000  Level FlightAware ADS-B
Thu 06:53:00 AM 42.0040 10.8870 124° Southeast 518 596 35,000  Level FlightAware ADS-B
Thu 06:53:48 AM 41.9400 11.0140 124° Southeast 518 596 35,000  Level FlightAware ADS-B
Thu 06:54:28 AM 41.8860 11.1180 125° Southeast 515 593 35,000  Level FlightAware ADS-B
Thu 06:55:08 AM 41.8310 11.2260 124° Southeast 515 593 35,000  Level FlightAware ADS-B
Thu 06:55:52 AM 41.7700 11.3450 124° Southeast 514 592 35,000 494 Level FlightAware ADS-B
Thu 06:56:33 AM 41.7140 11.4510 125° Southeast 517 595 35,700 1,200 Climbing FlightAware ADS-B
Thu 06:57:17 AM 41.6540 11.5650 125° Southeast 517 595 36,700 918 Climbing FlightAware ADS-B
Thu 06:57:58 AM 41.5970 11.6760 124° Southeast 518 596 37,000 212 Climbing FlightAware ADS-B
Thu 06:58:42 AM 41.5350 11.7950 125° Southeast 518 596 37,000  Level FlightAware ADS-B
Thu 06:59:24 AM 41.4810 11.8980 125° Southeast 518 596 37,000  Level FlightAware ADS-B
Thu 07:00:04 AM 41.4230 12.0050 126° Southeast 517 595 37,000  Level FlightAware ADS-B
Thu 07:00:49 AM 41.3600 12.1260 125° Southeast 516 594 37,000  Level FlightAware ADS-B
Thu 07:01:24 AM 41.3150 12.2090 126° Southeast 514 592 37,000  Level FlightAware ADS-B
Thu 07:02:10 AM 41.2470 12.3370 125° Southeast 519 597 37,000  Level FlightAware ADS-B
Thu 07:02:55 AM 41.1830 12.4560 126° Southeast 519 597 37,000  Level FlightAware ADS-B
Thu 07:03:35 AM 41.1290 12.5570 125° Southeast 519 597 37,000  Level FlightAware ADS-B
Thu 07:04:15 AM 41.0750 12.6570 126° Southeast 519 597 37,000  Level FlightAware ADS-B
Thu 07:04:55 AM 41.0160 12.7660 126° Southeast 520 598 37,000  Level FlightAware ADS-B
Thu 07:05:37 AM 40.9580 12.8740 125° Southeast 518 596 37,000  Level FlightAware ADS-B
Thu 07:06:38 AM 40.8860 13.0170 124° Southeast 521 600 37,000  Level FlightAware ADS-B
Thu 07:07:18 AM 40.8290 13.1470 120° Southeast 524 603 37,000  Level FlightAware ADS-B
Thu 07:07:59 AM 40.7780 13.2640 120° Southeast 526 605 37,000  Level FlightAware ADS-B
Thu 07:08:47 AM 40.7210 13.3950 120° Southeast 529 609 37,000  Level FlightAware ADS-B
Thu 07:09:27 AM 40.6710 13.5090 120° Southeast 529 609 37,000  Level FlightAware ADS-B
Thu 07:10:08 AM 40.6240 13.6120 121° Southeast 530 610 37,000  Level FlightAware ADS-B
Thu 07:10:31 AM 40.5920 13.6870 119° Southeast 531 611 37,000  Level FlightAware ADS-B
Thu 07:11:35 AM 40.5350 13.8150 120° Southeast 532 612 37,000  Level FlightAware ADS-B
Thu 07:12:18 AM 40.4600 13.9800 121° Southeast 534 615 37,000  Level FlightAware ADS-B
Thu 07:12:58 AM 40.4110 14.0920 120° Southeast 535 616 37,000  Level FlightAware ADS-B
Thu 07:13:42 AM 40.3520 14.2200 121° Southeast 534 615 37,000  Level FlightAware ADS-B
Thu 07:14:24 AM 40.2990 14.3370 121° Southeast 534 615 37,000  Level FlightAware ADS-B
Thu 07:15:06 AM 40.2470 14.4510 121° Southeast 533 613 37,000  Level FlightAware ADS-B
Thu 07:15:48 AM 40.1940 14.5670 121° Southeast 532 612 37,000  Level FlightAware ADS-B
Thu 07:16:29 AM 40.1420 14.6800 121° Southeast 532 612 37,000  Level FlightAware ADS-B
Thu 07:17:11 AM 40.0890 14.7960 121° Southeast 533 613 37,000  Level FlightAware ADS-B
Thu 07:17:53 AM 40.0360 14.9110 121° Southeast 533 613 37,000  Level FlightAware ADS-B
Thu 07:18:37 AM 39.9790 15.0350 121° Southeast 533 613 37,000  Level FlightAware ADS-B
Thu 07:19:17 AM 39.9280 15.1430 122° Southeast 535 616 37,000  Level FlightAware ADS-B
Thu 07:20:00 AM 39.8740 15.2610 121° Southeast 537 618 37,000  Level FlightAware ADS-B
Thu 07:20:44 AM 39.8170 15.3830 121° Southeast 539 620 37,000  Level FlightAware ADS-B
Thu 07:21:26 AM 39.7620 15.4990 122° Southeast 540 621 37,000  Level FlightAware ADS-B
Thu 07:22:07 AM 39.7080 15.6130 122° Southeast 541 623 37,000  Level FlightAware ADS-B
Thu 07:22:42 AM 39.6630 15.7070 122° Southeast 542 624 37,000  Level FlightAware ADS-B
Thu 07:23:32 AM 39.5950 15.8510 121° Southeast 543 625 37,000  Level FlightAware ADS-B
Thu 07:24:10 AM 39.5450 15.9560 122° Southeast 545 627 37,000  Level FlightAware ADS-B
Thu 07:24:56 AM 39.4860 16.0830 121° Southeast 550 633 37,000  Level FlightAware ADS-B
Thu 07:25:20 AM 39.4650 16.1530 111° Southeast 554 638 37,000  Level FlightAware ADS-B
Thu 07:25:58 AM 39.4280 16.2740 112° Southeast 556 640 37,000  Level FlightAware ADS-B
Thu 07:26:38 AM 39.3900 16.3970 112° Southeast 557 641 37,000  Level FlightAware ADS-B
Thu 07:27:17 AM 39.3520 16.5180 112° Southeast 559 643 37,000  Level FlightAware ADS-B
Thu 07:28:00 AM 39.3070 16.6530 113° Southeast 561 646 37,000  Level FlightAware ADS-B
Thu 07:28:44 AM 39.2630 16.7850 113° Southeast 562 647 37,000  Level FlightAware ADS-B
Thu 07:29:26 AM 39.2180 16.9170 114° Southeast 561 646 37,000  Level FlightAware ADS-B
Thu 07:30:08 AM 39.1760 17.0430 113° Southeast 561 646 37,000  Level FlightAware ADS-B
Thu 07:30:44 AM 39.1540 17.1070 114° Southeast 561 646 37,000  Level FlightAware ADS-B
Thu 07:31:29 AM 39.1040 17.2580 113° Southeast 565 650 37,000  Level FlightAware ADS-B
Thu 07:32:09 AM 39.0660 17.3730 113° Southeast 567 652 37,000  Level FlightAware ADS-B
Thu 07:32:58 AM 39.0160 17.5260 113° Southeast 567 652 37,000  Level FlightAware ADS-B
Thu 07:33:38 AM 38.9730 17.6580 113° Southeast 571 657 37,000  Level FlightAware ADS-B
Thu 07:34:35 AM 38.9170 17.8260 113° Southeast 571 657 37,000  Level FlightAware ADS-B
Thu 07:35:15 AM 38.8700 17.9670 113° Southeast 574 661 37,000  Level FlightAware ADS-B
Thu 07:35:57 AM 38.8300 18.0860 113° Southeast 575 662 37,000  Level FlightAware ADS-B
Thu 07:36:36 AM 38.7830 18.2270 113° Southeast 577 664 37,000  Level FlightAware ADS-B
Thu 07:37:21 AM 38.7380 18.3590 114° Southeast 577 664 37,000  Level FlightAware ADS-B
Thu 07:38:02 AM 38.6960 18.4810 114° Southeast 579 666 37,000  Level FlightAware ADS-B
Thu 07:38:42 AM 38.6540 18.6070 113° Southeast 579 666 37,000  Level FlightAware ADS-B
Thu 07:39:22 AM 38.6120 18.7290 114° Southeast 580 667 37,000  Level FlightAware ADS-B
Thu 07:40:21 AM 38.5490 18.9110 114° Southeast 581 669 37,000  Level FlightAware ADS-B
Thu 07:41:07 AM 38.4900 19.1030 111° Southeast 582 670 37,000  Level FlightAware ADS-B
Thu 07:41:46 AM 38.4560 19.2340 108° East 582 670 37,000  Level FlightAware ADS-B
Thu 07:42:27 AM 38.4210 19.3680 108° East 583 671 37,000  Level FlightAware ADS-B
Thu 07:43:12 AM 38.3810 19.5110 110° East 585 673 37,000  Level FlightAware ADS-B
Thu 07:43:52 AM 38.3410 19.6420 111° Southeast 582 670 37,000  Level FlightAware ADS-B
Thu 07:44:37 AM 38.2970 19.7830 112° Southeast 582 670 37,000  Level FlightAware ADS-B
Thu 07:45:21 AM 38.2530 19.9260 111° Southeast 582 670 37,000  Level FlightAware ADS-B
Thu 07:46:02 AM 38.2140 20.0540 111° Southeast 583 671 37,000  Level FlightAware ADS-B
Thu 07:46:42 AM 38.1750 20.1820 111° Southeast 583 671 37,000  Level FlightAware ADS-B
Thu 07:47:22 AM 38.1350 20.3120 111° Southeast 583 671 37,000  Level FlightAware ADS-B
Thu 07:48:02 AM 38.0960 20.4360 112° Southeast 583 671 37,000  Level FlightAware ADS-B
Thu 07:48:47 AM 38.0510 20.5830 111° Southeast 581 669 37,000  Level FlightAware ADS-B
Thu 07:49:27 AM 38.0110 20.7100 112° Southeast 581 669 37,000  Level FlightAware ADS-B
Thu 07:50:09 AM 37.9700 20.8370 112° Southeast 581 669 37,000  Level FlightAware ADS-B
Thu 07:50:53 AM 37.9250 20.9800 112° Southeast 581 669 37,000  Level FlightAware ADS-B
Thu 07:51:33 AM 37.8870 21.0970 112° Southeast 582 670 37,000  Level FlightAware ADS-B
Thu 07:52:30 AM 37.8250 21.2940 112° Southeast 584 672 37,000  Level FlightAware ADS-B
Thu 07:53:16 AM 37.7790 21.4360 112° Southeast 584 672 37,000  Level FlightAware ADS-B
Thu 07:53:56 AM 37.7380 21.5590 113° Southeast 583 671 37,000  Level FlightAware ADS-B
Thu 07:54:36 AM 37.6880 21.6840 117° Southeast 583 671 37,000  Level FlightAware ADS-B
Thu 07:55:14 AM 37.6410 21.8020 117° Southeast 582 670 37,000  Level FlightAware ADS-B
Thu 07:56:02 AM 37.5850 21.9410 117° Southeast 582 670 37,000  Level FlightAware ADS-B
Thu 07:56:42 AM 37.5350 22.0650 117° Southeast 583 671 37,000  Level FlightAware ADS-B
Thu 07:57:26 AM 37.4800 22.1970 118° Southeast 583 671 37,000  Level FlightAware ADS-B
Thu 07:58:10 AM 37.4250 22.3330 117° Southeast 582 670 37,000  Level FlightAware ADS-B
Thu 07:58:50 AM 37.3780 22.4470 117° Southeast 582 670 37,000  Level FlightAware ADS-B
Thu 07:59:32 AM 37.3240 22.5760 118° Southeast 581 669 37,000  Level FlightAware ADS-B
Thu 08:00:12 AM 37.2780 22.6980 115° Southeast 581 669 37,000  Level FlightAware ADS-B
Thu 08:00:52 AM 37.2350 22.8210 114° Southeast 581 669 37,000  Level FlightAware ADS-B
Thu 08:01:38 AM 37.1880 22.9610 113° Southeast 581 669 37,000  Level FlightAware ADS-B
Thu 08:02:22 AM 37.1420 23.1010 112° Southeast 581 669 37,000  Level FlightAware ADS-B
Thu 08:03:04 AM 37.0980 23.2320 113° Southeast 582 670 37,000  Level FlightAware ADS-B
Thu 08:03:44 AM 37.0570 23.3560 112° Southeast 581 669 37,000  Level FlightAware ADS-B
Thu 08:04:26 AM 37.0130 23.4860 113° Southeast 580 667 37,000  Level FlightAware ADS-B
Thu 08:05:22 AM 36.9550 23.6590 113° Southeast 580 667 37,000  Level FlightAware ADS-B
Thu 08:06:02 AM 36.9130 23.7850 113° Southeast 580 667 37,000  Level FlightAware ADS-B
Thu 08:06:48 AM 36.8660 23.9240 113° Southeast 580 667 37,000  Level FlightAware ADS-B
Thu 08:07:28 AM 36.8240 24.0470 113° Southeast 580 667 37,000  Level FlightAware ADS-B
Thu 08:08:08 AM 36.7800 24.1730 114° Southeast 580 667 37,000  Level FlightAware ADS-B
Thu 08:08:52 AM 36.7350 24.3050 113° Southeast 580 667 37,000  Level FlightAware ADS-B
Thu 08:09:32 AM 36.6920 24.4310 113° Southeast 580 667 37,000  Level FlightAware ADS-B
Thu 08:10:32 AM 36.6290 24.6120 113° Southeast 579 666 37,000  Level FlightAware ADS-B
Thu 08:10:56 AM 36.6030 24.6850 114° Southeast 579 666 37,000  Level FlightAware ADS-B
Thu 08:11:41 AM 36.5670 24.7890 113° Southeast 579 666 37,000  Level FlightAware ADS-B
Thu 08:12:21 AM 36.5140 24.9420 113° Southeast 576 663 37,000  Level FlightAware ADS-B
Thu 08:13:01 AM 36.4710 25.0640 114° Southeast 576 663 37,000  Level FlightAware ADS-B
Thu 08:13:41 AM 36.4270 25.1860 114° Southeast 576 663 37,000  Level FlightAware ADS-B
Thu 08:14:31 AM 36.3730 25.3380 114° Southeast 576 663 37,000  Level FlightAware ADS-B
Thu 08:15:07 AM 36.3360 25.4410 114° Southeast 578 665 37,000  Level FlightAware ADS-B
Thu 08:15:51 AM 36.2860 25.5810 114° Southeast 578 665 37,000  Level FlightAware ADS-B
Thu 08:16:31 AM 36.2420 25.7030 114° Southeast 578 665 37,000  Level FlightAware ADS-B
Thu 08:17:16 AM 36.1950 25.8330 114° Southeast 579 666 37,000  Level FlightAware ADS-B
Thu 08:17:56 AM 36.1510 25.9550 114° Southeast 579 666 37,000  Level FlightAware ADS-B
Thu 08:18:42 AM 36.0990 26.1010 114° Southeast 583 671 37,000  Level FlightAware ADS-B
Thu 08:19:32 AM 36.0420 26.2550 115° Southeast 582 670 37,000  Level FlightAware ADS-B
Thu 08:20:32 AM 35.9850 26.4100 114° Southeast 582 670 37,000  Level FlightAware ADS-B
Thu 08:21:23 AM 35.9330 26.5490 115° Southeast 582 670 37,000  Level FlightAware ADS-B
Thu 08:22:10 AM 35.8730 26.7120 114° Southeast 581 669 37,000  Level FlightAware ADS-B
Thu 08:23:07 AM 35.8150 26.8680 115° Southeast 580 667 37,000  Level FlightAware ADS-B
Thu 08:23:48 AM 35.7650 27.0000 115° Southeast 580 667 37,000  Level FlightAware ADS-B
Thu 08:24:28 AM 35.7180 27.1250 115° Southeast 578 665 37,000  Level FlightAware ADS-B
Thu 08:25:10 AM 35.6780 27.2330 114° Southeast 577 664 37,000  Level FlightAware ADS-B
Thu 08:25:55 AM 35.6360 27.3480 114° Southeast 577 664 37,000  Level FlightAware ADS-B
Thu 08:26:30 AM 35.6040 27.4370 114° Southeast 577 664 37,000  Level FlightAware ADS-B
Thu 08:27:18 AM 35.5600 27.5590 114° Southeast 577 664 37,000  Level FlightAware ADS-B
Thu 08:27:57 AM 35.5240 27.6590 114° Southeast 577 664 37,000  Level FlightAware ADS-B
Thu 08:28:42 AM 35.4260 27.8900 117° Southeast 576 663 37,000  Level FlightAware ADS-B
Thu 08:29:17 AM 35.3860 27.9900 116° Southeast 574 661 37,000  Level FlightAware ADS-B
Thu 08:30:00 AM 35.3470 28.0940 115° Southeast 578 665 37,000  Level FlightAware ADS-B
Thu 08:31:04 AM 35.2590 28.3160 116° Southeast 582 670 37,000  Level FlightAware ADS-B
Thu 08:31:46 AM 35.2100 28.4440 115° Southeast 583 671 37,000  Level FlightAware ADS-B
Thu 08:32:28 AM 35.1610 28.5660 116° Southeast 584 672 37,000  Level FlightAware ADS-B
Thu 08:33:06 AM 35.1160 28.6790 116° Southeast 583 671 37,000  Level FlightAware ADS-B
Thu 08:34:04 AM 35.0500 28.8470 116° Southeast 579 666 37,000  Level FlightAware ADS-B
Thu 08:34:48 AM 34.9980 28.9770 116° Southeast 579 666 37,000  Level FlightAware ADS-B
Thu 08:35:42 AM 34.9330 29.1400 116° Southeast 582 670 37,000  Level FlightAware ADS-B
Thu 08:36:24 AM 34.8830 29.2640 116° Southeast 581 669 37,000  Level FlightAware ADS-B
Thu 08:37:00 AM 34.8460 29.3540 117° Southeast 37,000  Level FlightAware ADS-B
Thu 08:37:42 AM 34.7990 29.4720 116° Southeast 580 667 37,000  Level FlightAware ADS-B
Thu 08:38:29 AM 34.7370 29.6240 116° Southeast 580 667 37,000  Level FlightAware ADS-B
Thu 08:39:09 AM 34.6890 29.7430 116° Southeast 580 667 37,000  Level FlightAware ADS-B
Thu 08:39:49 AM 34.6440 29.8510 117° Southeast 579 666 37,000  Level FlightAware ADS-B
Thu 08:40:35 AM 34.5850 29.9900 117° Southeast 579 666 37,000  Level FlightAware ADS-B
Thu 08:41:19 AM 34.5260 30.1130 120° Southeast 578 665 37,000  Level FlightAware ADS-B
Thu 08:42:00 AM 34.4700 30.2280 121° Southeast 576 663 37,000  Level FlightAware ADS-B
Thu 08:42:40 AM 34.4150 30.3440 120° Southeast 574 661 37,000  Level FlightAware ADS-B
Thu 08:43:27 AM 34.3560 30.4640 121° Southeast 572 658 37,000  Level FlightAware ADS-B
Thu 08:44:06 AM 34.3020 30.5770 120° Southeast 566 651 37,000  Level FlightAware ADS-B
Thu 08:44:51 AM 34.2410 30.7030 120° Southeast 565 650 37,000  Level FlightAware ADS-B
Thu 08:45:42 AM 34.1740 30.8430 120° Southeast 568 654 37,000  Level FlightAware ADS-B
Thu 08:46:38 AM 34.1010 30.9930 120° Southeast 567 652 37,000  Level FlightAware ADS-B
Thu 08:47:17 AM 34.0490 31.1000 120° Southeast 568 654 37,000  Level FlightAware ADS-B
Thu 08:48:03 AM 33.9860 31.2280 121° Southeast 566 651 37,000  Level FlightAware ADS-B
Thu 08:48:43 AM 33.9330 31.3360 121° Southeast 565 650 37,000  Level FlightAware ADS-B
Thu 08:49:24 AM 33.8780 31.4470 121° Southeast 564 649 37,000  Level FlightAware ADS-B
Thu 08:50:09 AM 33.8170 31.5710 121° Southeast 563 648 37,000  Level FlightAware ADS-B
Thu 08:50:50 AM 33.7620 31.6810 121° Southeast 564 649 37,000  Level FlightAware ADS-B
Thu 08:51:35 AM 33.7010 31.8020 121° Southeast 563 648 37,000  Level FlightAware ADS-B
Thu 08:52:15 AM 33.6500 31.9040 121° Southeast 562 647 37,000  Level FlightAware ADS-B
Thu 08:52:56 AM 33.5930 32.0190 121° Southeast 562 647 37,000  Level FlightAware ADS-B
Thu 08:53:42 AM 33.5360 32.1330 121° Southeast 561 646 37,000  Level FlightAware ADS-B
Thu 08:54:21 AM 33.4800 32.2420 122° Southeast 560 644 37,000  Level FlightAware ADS-B
Thu 08:55:21 AM 33.4000 32.4010 121° Southeast 557 641 37,000  Level FlightAware ADS-B
Thu 08:55:56 AM 33.3570 32.4850 121° Southeast 556 640 37,000 -600 Level FlightAware ADS-B
Thu 08:56:41 AM 33.2930 32.6090 122° Southeast 559 643 36,200 -1,714 Descending FlightAware ADS-B
Thu 08:57:27 AM 33.2360 32.7210 121° Southeast 554 638 34,400 -2,688 Descending FlightAware ADS-B
Thu 08:58:17 AM 33.1620 32.8670 121° Southeast 550 633 31,900 -2,710 Descending FlightAware ADS-B
Thu 08:59:00 AM 33.1070 32.9740 122° Southeast 535 616 30,200 -2,372 Descending FlightAware ADS-B
Thu 08:59:43 AM 33.0520 33.0810 121° Southeast 520 598 28,500 -2,414 Descending FlightAware ADS-B
Thu 09:00:27 AM 32.9960 33.1890 122° Southeast 503 579 26,700 -2,207 Descending FlightAware ADS-B
Thu 09:01:10 AM 32.9480 33.2790 122° Southeast 487 560 25,300 -2,000 Descending FlightAware ADS-B
Thu 09:01:48 AM 32.9060 33.3620 121° Southeast 467 537 24,000 -2,222 Descending FlightAware ADS-B
Thu 09:02:31 AM 32.8510 33.4650 122° Southeast 449 517 22,300 -2,182 Descending FlightAware ADS-B
Thu 09:03:16 AM 32.8030 33.5580 122° Southeast 432 497 20,800 -1,953 Descending FlightAware ADS-B
Thu 09:03:57 AM 32.7600 33.6390 122° Southeast 418 481 19,500 -1,835 Descending FlightAware ADS-B
Thu 09:04:41 AM 32.7180 33.7200 122° Southeast 406 467 18,200 -1,714 Descending FlightAware ADS-B
Thu 09:05:21 AM 32.6850 33.7810 123° Southeast 399 459 17,100 -1,880 Descending FlightAware ADS-B
Thu 09:06:04 AM 32.6360 33.8750 122° Southeast 387 445 15,600 -1,974 Descending FlightAware ADS-B
Thu 09:06:37 AM 32.6040 33.9350 122° Southeast 379 436 14,600 -1,714 Descending FlightAware ADS-B
Thu 09:07:28 AM 32.5580 34.0240 122° Southeast 365 420 13,200 -1,582 Descending FlightAware ADS-B
Thu 09:08:08 AM 32.5230 34.0890 123° Southeast 356 410 12,200 -1,537 Descending FlightAware ADS-B
Thu 09:08:50 AM 32.4870 34.1550 123° Southeast 347 399 11,100 -1,412 Descending FlightAware ADS-B
Thu 09:09:33 AM 32.4400 34.2150 133° Southeast 328 377 10,200 -900 Descending FlightAware ADS-B
Thu 09:10:10 AM 32.4010 34.2600 136° Southeast 301 346 9,900 -490 Descending FlightAware ADS-B
Thu 09:10:22 AM 32.3910 34.2710 137° Southeast 295 339 9,800 -1,125 Descending FlightAware ADS-B
Thu 09:10:58 AM 32.3540 34.3140 136° Southeast 293 337 9,000 -1,200 Descending FlightAware ADS-B
Thu 09:11:27 AM 32.3260 34.3470 135° Southeast 285 328 8,500 -500 Descending FlightAware ADS-B
Thu 09:12:10 AM 32.2930 34.3870 134° Southeast 284 327 8,400 -90 Descending FlightAware ADS-B
Thu 09:12:34 AM 32.2740 34.4090 136° Southeast 284 327 8,400  Level FlightAware ADS-B
Thu 09:12:58 AM 32.2550 34.4320 134° Southeast 284 327 8,400  Level FlightAware ADS-B
Thu 09:15:00 AM 32.0819 34.7035 115° Southeast  Level FlightAware Approximate
Thu 09:16:00 AM 32.0114 34.8478 125° Southeast  Level FlightAware Approximate
Thu 09:17:00 AM 32.0000 34.8667 125° Southeast  Level FlightAware Approximate
Thu 09:18:00 AM 32.0095 34.8769 125° Southeast  Level Estimated
Thu 09:19:00 AM 32.0095 34.8769 125° Southeast  Level Estimated
Thu 09:20:00 AM 32.0095 34.8769 125° Southeast  Level Estimated
Thu 09:21:00 AM 32.0095 34.8769 125° Southeast  Level Estimated
Thu 09:22:00 AM 32.0095 34.8769 125° Southeast  Level Estimated
Thu 09:23:00 AM 32.0095 34.8769 125° Southeast  Level Estimated
Thu 09:24:00 AM 32.0095 34.8769 125° Southeast  Level Estimated

Login

Don't have an account? Register now (free) for customized features, flight alerts, and more!